PORTS® Data Listing: 8531680 Sandy Hook, NJ

CO-OPS RAW PORTS DATA

************************      PRELIMINARY DATA      ************************** 

     THIS RAW DATA HAS NOT BEEN SUBJECT TO THE NATIONAL OCEAN SERVICE'S        
     QUALITY CONTROL OR QUALITY ASSURANCE PROCEDURES AND DOES NOT MEET         
     THE CRITERIA AND STANDARDS OF OFFICIAL NATIONAL OCEAN SERVICE             
     DATA.  IT IS RELEASED FOR LIMITED PUBLIC USE AS PRELIMINARY DATA TO       
     BE USED ONLY WITH APPROPRIATE CAUTION.                                    

************************      PRELIMINARY DATA      ************************** 


       CD   -   Calendar date
       T    -   Time
       TZ   -   Timezone
       PW   -   Predicted water level (feet above MLLW)
       OW   -   Observed water level (feet above MLLW)
       WS   -   Wind speed (knots)
       WD   -   Wind direction (degrees true)
       WG   -   Wind gust (knots)
       AT   -   Air temperature (degrees farenheit)
       WT   -   Water temperature (degrees farenheit)
       AP   -   Air pressure (millibars)
       SA   -   Salinty (PSU - Practical Salinity Units)
       SG   -   Specific gravity
       RH   -   Relative humidity
       AG   -   Air gap (feet)
       VI   -   Visibility (nautical miles)

       ** NOTE **
       A variable that has its data fields filled with "9"s, indicates that
       data was not collected for that sample period.
       **********


STATION NAME: Sandy Hook (8531680)
****************************************************************************************************
    CD       T    TZ    PW     OW    WS   WD   WG    AT    WT    AP    SA    SG     RH    AG   VI
****************************************************************************************************
2020/02/13 17:42 EST   -0.60   0.19    8  297    9  42.1  42.4 1006.1 -9.9 -9.999 -99.9 -99.99 -9.99
2020/02/13 17:48 EST   -0.56   0.21    7  288    9  42.1  42.4 1006.6 -9.9 -9.999 -99.9 -99.99 -9.99
2020/02/13 17:54 EST   -0.51   0.28    7  282    8  42.3  42.4 1007.0 -9.9 -9.999 -99.9 -99.99 -9.99
2020/02/13 18:00 EST   -0.46   0.29    6  283    8  42.3  42.4 1006.7 -9.9 -9.999 -99.9 -99.99 -9.99
2020/02/13 18:06 EST   -0.39   0.30    6  279    7  42.3  42.4 1007.2 -9.9 -9.999 -99.9 -99.99 -9.99
2020/02/13 18:12 EST   -0.32   0.37    6  282    7  42.3  42.4 1007.3 -9.9 -9.999 -99.9 -99.99 -9.99
2020/02/13 18:18 EST   -0.25   0.42    8  281   10  42.3  42.4 1007.6 -9.9 -9.999 -99.9 -99.99 -9.99
2020/02/13 18:24 EST   -0.16   0.51   10  283   11  42.3  42.4 1007.7 -9.9 -9.999 -99.9 -99.99 -9.99
2020/02/13 18:30 EST   -0.07   0.57    8  284   10  42.4  42.4 1007.8 -9.9 -9.999 -99.9 -99.99 -9.99
2020/02/13 18:36 EST    0.03   0.67    7  287    9  42.4  42.4 1007.9 -9.9 -9.999 -99.9 -99.99 -9.99
2020/02/13 18:42 EST    0.14   0.76    8  286   10  42.4  42.4 1008.4 -9.9 -9.999 -99.9 -99.99 -9.99
2020/02/13 18:48 EST    0.25   0.85    9  287   11  42.4  42.4 1008.5 -9.9 -9.999 -99.9 -99.99 -9.99
2020/02/13 18:54 EST    0.37   1.03    9  285   12  42.4  42.4 1008.6 -9.9 -9.999 -99.9 -99.99 -9.99
2020/02/13 19:00 EST    0.49   1.13    9  283   12  42.6  42.4 1008.8 -9.9 -9.999 -99.9 -99.99 -9.99
2020/02/13 19:06 EST    0.62   1.26   10  285   12  42.6  42.4 1009.1 -9.9 -9.999 -99.9 -99.99 -9.99
2020/02/13 19:12 EST    0.75   1.39   11  290   13  42.8  42.4 1009.2 -9.9 -9.999 -99.9 -99.99 -9.99
2020/02/13 19:18 EST    0.88   1.50   13  295   14  42.8  42.4 1009.3 -9.9 -9.999 -99.9 -99.99 -9.99
2020/02/13 19:24 EST    1.02   1.62   14  301   15  42.8  42.4 1009.2 -9.9 -9.999 -99.9 -99.99 -9.99
2020/02/13 19:30 EST    1.16   1.73   14  305   16  43.0  42.4 1009.3 -9.9 -9.999 -99.9 -99.99 -9.99
2020/02/13 19:36 EST    1.31   1.89   14  305   16  43.3  42.4 1009.4 -9.9 -9.999 -99.9 -99.99 -9.99
2020/02/13 19:42 EST    1.45   1.98   13  303   15  43.5  42.4 1009.7 -9.9 -9.999 -99.9 -99.99 -9.99
2020/02/13 19:48 EST    1.59   2.10   13  306   15  43.5  42.4 1010.0 -9.9 -9.999 -99.9 -99.99 -9.99
2020/02/13 19:54 EST    1.74   2.26   12  310   15  43.5  42.4 1010.1 -9.9 -9.999 -99.9 -99.99 -9.99
2020/02/13 20:00 EST    1.89   2.37   14  316   18  43.5  42.4 1010.1 -9.9 -9.999 -99.9 -99.99 -9.99
2020/02/13 20:06 EST    2.03   2.51   15  316   21  43.7  42.4 1010.2 -9.9 -9.999 -99.9 -99.99 -9.99
2020/02/13 20:12 EST    2.18   2.66   12  319   18  43.3  42.4 1010.2 -9.9 -9.999 -99.9 -99.99 -9.99
2020/02/13 20:18 EST    2.32   2.80   14  317   17  43.3  42.4 1010.4 -9.9 -9.999 -99.9 -99.99 -9.99
2020/02/13 20:24 EST    2.46   2.89   14  316   18  43.2  42.4 1010.5 -9.9 -9.999 -99.9 -99.99 -9.99
2020/02/13 20:30 EST    2.61   2.98   15  317   18  43.2  42.4 1010.6 -9.9 -9.999 -99.9 -99.99 -9.99
2020/02/13 20:36 EST    2.74   3.10   15  316   19  43.0  42.4 1010.7 -9.9 -9.999 -99.9 -99.99 -9.99
2020/02/13 20:42 EST    2.88   3.20   15  318   18  42.8  42.4 1010.8 -9.9 -9.999 -99.9 -99.99 -9.99
2020/02/13 20:48 EST    3.02   3.28   13  329   16  42.3  42.4 1011.0 -9.9 -9.999 -99.9 -99.99 -9.99
2020/02/13 20:54 EST    3.15   3.34   18  321   21  42.3  42.4 1010.9 -9.9 -9.999 -99.9 -99.99 -9.99
2020/02/13 21:00 EST    3.28   3.42   19  321   28  42.3  42.4 1011.1 -9.9 -9.999 -99.9 -99.99 -9.99
2020/02/13 21:06 EST    3.41   3.49   19  316   23  42.1  42.4 1011.3 -9.9 -9.999 -99.9 -99.99 -9.99
2020/02/13 21:12 EST    3.53   3.60   20  318   27  41.9  42.4 1011.2 -9.9 -9.999 -99.9 -99.99 -9.99
2020/02/13 21:18 EST    3.65   3.70   17  317   24  41.9  42.4 1011.4 -9.9 -9.999 -99.9 -99.99 -9.99
2020/02/13 21:24 EST    3.77   3.77   18  313   22  41.9  42.6 1011.8 -9.9 -9.999 -99.9 -99.99 -9.99
2020/02/13 21:30 EST    3.88   3.85   21  313   25  41.7  42.6 1011.8 -9.9 -9.999 -99.9 -99.99 -9.99
2020/02/13 21:36 EST    3.99   4.02   19  314   26  41.7  42.6 1011.9 -9.9 -9.999 -99.9 -99.99 -9.99
2020/02/13 21:42 EST    4.10   4.12   20  315   24  41.5  42.6 1011.8 -9.9 -9.999 -99.9 -99.99 -9.99
2020/02/13 21:48 EST    4.21   4.23   17  319   25  41.4  42.6 1012.0 -9.9 -9.999 -99.9 -99.99 -9.99
2020/02/13 21:54 EST    4.31   4.32   18  314   23  41.4  42.6 1012.3 -9.9 -9.999 -99.9 -99.99 -9.99
2020/02/13 22:00 EST    4.40   4.38   17  314   22  41.4  42.6 1012.4 -9.9 -9.999 -99.9 -99.99 -9.99
2020/02/13 22:06 EST    4.49   4.51   17  315   21  41.4  42.6 1012.7 -9.9 -9.999 -99.9 -99.99 -9.99
2020/02/13 22:12 EST    4.58   4.58   21  317   25  41.4  42.6 1012.7 -9.9 -9.999 -99.9 -99.99 -9.99
2020/02/13 22:18 EST    4.66   4.62   19  318   24  41.4  42.6 1012.7 -9.9 -9.999 -99.9 -99.99 -9.99
2020/02/13 22:24 EST    4.74   4.66   20  319   25  41.4  42.6 1012.9 -9.9 -9.999 -99.9 -99.99 -9.99
2020/02/13 22:30 EST    4.81   4.78   25  324   30  41.4  42.6 1012.8 -9.9 -9.999 -99.9 -99.99 -9.99
2020/02/13 22:36 EST    4.88   4.86   22  325   31  41.4  42.6 1013.0 -9.9 -9.999 -99.9 -99.99 -9.99
2020/02/13 22:42 EST    4.94   4.85   21  317   32  41.5  42.6 1013.3 -9.9 -9.999 -99.9 -99.99 -9.99
2020/02/13 22:48 EST    5.00   4.95   23  316   27  41.4  42.6 1013.4 -9.9 -9.999 -99.9 -99.99 -9.99
2020/02/13 22:54 EST    5.05   5.02   21  316   27  41.4  42.6 1013.4 -9.9 -9.999 -99.9 -99.99 -9.99
2020/02/13 23:00 EST    5.10   5.04   24  316   29  41.5  42.6 1013.4 -9.9 -9.999 -99.9 -99.99 -9.99
2020/02/13 23:06 EST    5.13   5.07   25  321   30  41.4  42.6 1013.3 -9.9 -9.999 -99.9 -99.99 -9.99
2020/02/13 23:12 EST    5.16   5.09   20  318   27  41.4  42.6 1013.5 -9.9 -9.999 -99.9 -99.99 -9.99
2020/02/13 23:18 EST    5.19   5.13   21  316   27  41.4  42.6 1013.6 -9.9 -9.999 -99.9 -99.99 -9.99
2020/02/13 23:24 EST    5.21   5.14   17  317   23  41.2  42.6 1013.6 -9.9 -9.999 -99.9 -99.99 -9.99
2020/02/13 23:30 EST    5.22   5.18   15  313   21  41.2  42.6 1013.7 -9.9 -9.999 -99.9 -99.99 -9.99
2020/02/13 23:36 EST    5.22   5.16   16  314   22  41.2  42.6 1013.6 -9.9 -9.999 -99.9 -99.99 -9.99
2020/02/13 23:42 EST    5.21   5.15   14  312   19  41.2  42.6 1013.8 -9.9 -9.999 -99.9 -99.99 -9.99
2020/02/13 23:48 EST    5.20   5.13   15  309   18  41.2  42.6 1014.0 -9.9 -9.999 -99.9 -99.99 -9.99
2020/02/13 23:54 EST    5.18   5.15   15  306   17  41.2  42.6 1014.2 -9.9 -9.999 -99.9 -99.99 -9.99
2020/02/14 00:00 EST    5.15   5.14   15  302   17  41.2  42.6 1014.3 -9.9 -9.999 -99.9 -99.99 -9.99
2020/02/14 00:06 EST    5.11   5.13   15  305   17  41.2  42.6 1014.2 -9.9 -9.999 -99.9 -99.99 -9.99
2020/02/14 00:12 EST    5.06   5.12   14  301   16  41.2  42.6 1014.5 -9.9 -9.999 -99.9 -99.99 -9.99
2020/02/14 00:18 EST    5.01   5.13   14  298   16  41.2  42.6 1014.5 -9.9 -9.999 -99.9 -99.99 -9.99
2020/02/14 00:24 EST    4.95   5.07   14  303   16  41.2  42.6 1014.6 -9.9 -9.999 -99.9 -99.99 -9.99
2020/02/14 00:30 EST    4.88   5.06   15  303   18  41.2  42.6 1014.7 -9.9 -9.999 -99.9 -99.99 -9.99
2020/02/14 00:36 EST    4.80   5.00   13  294   16  41.0  42.6 1014.9 -9.9 -9.999 -99.9 -99.99 -9.99
2020/02/14 00:42 EST    4.72   4.88   14  292   17  41.0  42.6 1015.0 -9.9 -9.999 -99.9 -99.99 -9.99
2020/02/14 00:48 EST    4.63   4.77   13  290   15  40.8  42.6 1014.9 -9.9 -9.999 -99.9 -99.99 -9.99
2020/02/14 00:54 EST    4.53   4.75   12  284   14  40.8  42.6 1014.9 -9.9 -9.999 -99.9 -99.99 -9.99
2020/02/14 01:00 EST    4.43   4.56   11  297   13  40.8  42.6 1014.9 -9.9 -9.999 -99.9 -99.99 -9.99
2020/02/14 01:06 EST    4.32   4.45   14  290   15  40.8  42.6 1015.1 -9.9 -9.999 -99.9 -99.99 -9.99
2020/02/14 01:12 EST    4.21   4.38   13  282   15  40.8  42.6 1015.0 -9.9 -9.999 -99.9 -99.99 -9.99
2020/02/14 01:18 EST    4.09   4.32   12  284   14  40.6  42.6 1015.1 -9.9 -9.999 -99.9 -99.99 -9.99
2020/02/14 01:24 EST    3.97   4.18   12  277   14  40.5  42.4 1015.2 -9.9 -9.999 -99.9 -99.99 -9.99
2020/02/14 01:30 EST    3.84   4.16   12  282   15  40.5  42.4 1015.2 -9.9 -9.999 -99.9 -99.99 -9.99
2020/02/14 01:36 EST    3.71   3.99   16  287   18  40.6  42.4 1015.2 -9.9 -9.999 -99.9 -99.99 -9.99
2020/02/14 01:42 EST    3.58   3.91   17  285   19  40.5  42.4 1015.2 -9.9 -9.999 -99.9 -99.99 -9.99
2020/02/14 01:48 EST    3.44   3.79   16  280   19  40.6  42.4 1015.3 -9.9 -9.999 -99.9 -99.99 -9.99
2020/02/14 01:54 EST    3.31   3.67   17  276   19  40.5  42.4 1015.3 -9.9 -9.999 -99.9 -99.99 -9.99
2020/02/14 02:00 EST    3.17   3.51   18  278   20  40.5  42.4 1015.2 -9.9 -9.999 -99.9 -99.99 -9.99
2020/02/14 02:06 EST    3.03   3.31   18  279   20  40.6  42.4 1015.1 -9.9 -9.999 -99.9 -99.99 -9.99
2020/02/14 02:12 EST    2.89   3.16   18  277   21  40.5  42.4 1015.2 -9.9 -9.999 -99.9 -99.99 -9.99
2020/02/14 02:18 EST    2.75   3.00   17  273   21  40.5  42.3 1015.2 -9.9 -9.999 -99.9 -99.99 -9.99
2020/02/14 02:24 EST    2.61   2.81   16  270   20  40.3  42.3 1015.3 -9.9 -9.999 -99.9 -99.99 -9.99
2020/02/14 02:30 EST    2.48   2.69   17  269   19  40.3  42.3 1015.4 -9.9 -9.999 -99.9 -99.99 -9.99
2020/02/14 02:36 EST    2.34   2.50   17  269   20  40.1  42.3 1015.6 -9.9 -9.999 -99.9 -99.99 -9.99
2020/02/14 02:42 EST    2.20   2.35   17  267   20  39.9  42.1 1015.5 -9.9 -9.999 -99.9 -99.99 -9.99
2020/02/14 02:48 EST    2.07   2.22   15  268   18  39.9  42.1 1015.6 -9.9 -9.999 -99.9 -99.99 -9.99
2020/02/14 02:54 EST    1.94   2.13   17  265   20  39.9  41.9 1015.8 -9.9 -9.999 -99.9 -99.99 -9.99
2020/02/14 03:00 EST    1.81   1.94   15  264   18  39.7  41.9 1015.9 -9.9 -9.999 -99.9 -99.99 -9.99
2020/02/14 03:06 EST    1.68   1.81   16  263   17  39.7  41.9 1016.0 -9.9 -9.999 -99.9 -99.99 -9.99
2020/02/14 03:12 EST    1.56   1.70   14  267   18  39.6  41.9 1016.0 -9.9 -9.999 -99.9 -99.99 -9.99
2020/02/14 03:18 EST    1.44   1.57   15  266   17  39.4  41.9 1016.1 -9.9 -9.999 -99.9 -99.99 -9.99
2020/02/14 03:24 EST    1.32   1.44   14  265   17  39.4  41.9 1016.2 -9.9 -9.999 -99.9 -99.99 -9.99
2020/02/14 03:30 EST    1.21   1.27   14  260   17  39.4  41.9 1016.3 -9.9 -9.999 -99.9 -99.99 -9.99
2020/02/14 03:36 EST    1.09   1.15   14  266   17  39.4  41.9 1016.4 -9.9 -9.999 -99.9 -99.99 -9.99
2020/02/14 03:42 EST    0.98   1.05   15  263   18  39.2  41.9 1016.5 -9.9 -9.999 -99.9 -99.99 -9.99
2020/02/14 03:48 EST    0.88   0.92   16  262   18  39.2  41.9 1016.6 -9.9 -9.999 -99.9 -99.99 -9.99
2020/02/14 03:54 EST    0.78   0.80   14  259   17  39.2  41.9 1016.8 -9.9 -9.999 -99.9 -99.99 -9.99
2020/02/14 04:00 EST    0.68   0.74   14  258   16  38.8  41.9 1016.9 -9.9 -9.999 -99.9 -99.99 -9.99
2020/02/14 04:06 EST    0.58   0.65   13  257   16  38.7  41.9 1017.0 -9.9 -9.999 -99.9 -99.99 -9.99
2020/02/14 04:12 EST    0.49   0.56   13  259   15  38.5  41.9 1017.1 -9.9 -9.999 -99.9 -99.99 -9.99
2020/02/14 04:18 EST    0.41   0.47   13  256   16  38.3  41.9 1017.1 -9.9 -9.999 -99.9 -99.99 -9.99
2020/02/14 04:24 EST    0.32   0.42   12  255   15  38.1  41.9 1017.2 -9.9 -9.999 -99.9 -99.99 -9.99
2020/02/14 04:30 EST    0.25   0.33   13  253   14  37.9  41.7 1017.4 -9.9 -9.999 -99.9 -99.99 -9.99
2020/02/14 04:36 EST    0.17   0.24   13  258   15  37.9  41.7 1017.4 -9.9 -9.999 -99.9 -99.99 -9.99
2020/02/14 04:42 EST    0.10   0.19   14  258   16  37.9  41.7 1017.5 -9.9 -9.999 -99.9 -99.99 -9.99
2020/02/14 04:48 EST    0.04   0.12   14  260   17  38.1  41.7 1017.7 -9.9 -9.999 -99.9 -99.99 -9.99
2020/02/14 04:54 EST   -0.02   0.04   14  262   17  38.3  41.7 1017.9 -9.9 -9.999 -99.9 -99.99 -9.99
2020/02/14 05:00 EST   -0.07  -0.02   16  265   18  38.3  41.7 1018.0 -9.9 -9.999 -99.9 -99.99 -9.99
2020/02/14 05:06 EST   -0.12  -0.07   15  268   19  38.1  41.7 1017.9 -9.9 -9.999 -99.9 -99.99 -9.99
2020/02/14 05:12 EST   -0.16  -0.08   16  268   18  38.3  41.7 1018.1 -9.9 -9.999 -99.9 -99.99 -9.99
2020/02/14 05:18 EST   -0.20  -0.08   15  270   19  38.1  41.7 1018.2 -9.9 -9.999 -99.9 -99.99 -9.99
2020/02/14 05:24 EST   -0.22  -0.14   13  274   17  38.1  41.7 1018.4 -9.9 -9.999 -99.9 -99.99 -9.99
2020/02/14 05:30 EST   -0.25  -0.17   17  293   18  38.7  41.7 1018.5 -9.9 -9.999 -99.9 -99.99 -9.99
2020/02/14 05:36 EST   -0.26  -0.15   18  295   21  38.5  41.7 1018.5 -9.9 -9.999 -99.9 -99.99 -9.99
2020/02/14 05:42 EST   -0.27  -0.10   18  306   21  38.1  41.7 1018.7 -9.9 -9.999 -99.9 -99.99 -9.99
2020/02/14 05:48 EST   -0.27  -0.14   16  318   20  37.8  41.7 1018.9 -9.9 -9.999 -99.9 -99.99 -9.99
2020/02/14 05:54 EST   -0.26  -0.12   13  328   18  37.2  41.7 1019.0 -9.9 -9.999 -99.9 -99.99 -9.99
2020/02/14 06:00 EST   -0.25  -0.11   14  334   18  37.0  41.7 1019.2 -9.9 -9.999 -99.9 -99.99 -9.99
2020/02/14 06:06 EST   -0.23  -0.08   13  333   17  37.0  41.7 1019.3 -9.9 -9.999 -99.9 -99.99 -9.99
2020/02/14 06:12 EST   -0.20  -0.05   16  329   20  37.0  41.7 1019.4 -9.9 -9.999 -99.9 -99.99 -9.99
2020/02/14 06:18 EST   -0.16  -0.05   15  327   20  37.0  41.7 1019.5 -9.9 -9.999 -99.9 -99.99 -9.99
2020/02/14 06:24 EST   -0.12   0.01   20  334   26  36.5  41.7 1019.7 -9.9 -9.999 -99.9 -99.99 -9.99
2020/02/14 06:30 EST   -0.06   0.04   17  334   26  36.3  41.7 1019.7 -9.9 -9.999 -99.9 -99.99 -9.99
2020/02/14 06:36 EST   -0.00   0.09   17  334   23  36.1  41.7 1020.0 -9.9 -9.999 -99.9 -99.99 -9.99
2020/02/14 06:42 EST    0.06   0.18   19  332   24  36.1  41.7 1020.1 -9.9 -9.999 -99.9 -99.99 -9.99
2020/02/14 06:48 EST    0.14   0.24   20  331   26  36.0  41.7 1020.2 -9.9 -9.999 -99.9 -99.99 -9.99
2020/02/14 06:54 EST    0.22   0.33   19  330   25  36.0  41.7 1020.3 -9.9 -9.999 -99.9 -99.99 -9.99
2020/02/14 07:00 EST    0.30   0.43   16  331   23  35.8  41.7 1020.5 -9.9 -9.999 -99.9 -99.99 -9.99
2020/02/14 07:06 EST    0.40   0.52   16  334   22  35.6  41.7 1020.6 -9.9 -9.999 -99.9 -99.99 -9.99
2020/02/14 07:12 EST    0.49   0.63   19  330   25  34.9  41.7 1020.7 -9.9 -9.999 -99.9 -99.99 -9.99
2020/02/14 07:18 EST    0.60   0.74   20  335   26  34.2  41.9 1021.0 -9.9 -9.999 -99.9 -99.99 -9.99
2020/02/14 07:24 EST    0.71   0.83   22  338   27  33.8  41.9 1021.2 -9.9 -9.999 -99.9 -99.99 -9.99
2020/02/14 07:30 EST    0.82   0.92   20  336   28  33.4  41.9 1021.5 -9.9 -9.999 -99.9 -99.99 -9.99
2020/02/14 07:36 EST    0.94   1.01   21  330   28  33.3  41.7 1021.8 -9.9 -9.999 -99.9 -99.99 -9.99
2020/02/14 07:42 EST    1.06   1.13   20  332   28  33.1  41.9 1022.1 -9.9 -9.999 -99.9 -99.99 -9.99
2020/02/14 07:48 EST    1.18   1.18   21  323   27  32.9  41.9 1022.3 -9.9 -9.999 -99.9 -99.99 -9.99
2020/02/14 07:54 EST    1.30   1.30   20  324   25  32.9  41.9 1022.4 -9.9 -9.999 -99.9 -99.99 -9.99
2020/02/14 08:00 EST    1.43   1.40   19  327   24  32.5  41.9 1022.6 -9.9 -9.999 -99.9 -99.99 -9.99
2020/02/14 08:06 EST    1.56   1.50   17  341   24  32.0  41.9 1022.9 -9.9 -9.999 -99.9 -99.99 -9.99
2020/02/14 08:12 EST    1.69   1.56   19  339   24  31.8  41.9 1023.1 -9.9 -9.999 -99.9 -99.99 -9.99
2020/02/14 08:18 EST    1.82   1.64   21  335   26  31.6  41.9 1023.3 -9.9 -9.999 -99.9 -99.99 -9.99
2020/02/14 08:24 EST    1.95   1.76   24  333   28  31.5  41.7 1023.4 -9.9 -9.999 -99.9 -99.99 -9.99
2020/02/14 08:30 EST    2.08   1.86   21  328   30  31.6  41.7 1023.4 -9.9 -9.999 -99.9 -99.99 -9.99
2020/02/14 08:36 EST    2.21   2.01   14  333   24  32.0  41.7 1023.6 -9.9 -9.999 -99.9 -99.99 -9.99
2020/02/14 08:42 EST    2.34   2.12   17  336   21  32.0  41.7 1023.8 -9.9 -9.999 -99.9 -99.99 -9.99
2020/02/14 08:48 EST    2.47   2.17   20  337   25  31.8  41.7 1024.1 -9.9 -9.999 -99.9 -99.99 -9.99
2020/02/14 08:54 EST    2.59   2.26   17  336   22  31.5  41.7 1024.2 -9.9 -9.999 -99.9 -99.99 -9.99
2020/02/14 09:00 EST    2.72   2.39   18  327   24  31.3  41.7 1024.2 -9.9 -9.999 -99.9 -99.99 -9.99
2020/02/14 09:06 EST    2.84   2.49   17  334   25  30.9  41.7 1024.1 -9.9 -9.999 -99.9 -99.99 -9.99
2020/02/14 09:12 EST    2.96   2.52   18  329   26  31.5  41.7 1024.3 -9.9 -9.999 -99.9 -99.99 -9.99
2020/02/14 09:18 EST    3.08   2.56   16  337   22  30.6  41.7 1024.3 -9.9 -9.999 -99.9 -99.99 -9.99
2020/02/14 09:24 EST    3.20   2.73   14  338   21  30.9  41.7 1024.3 -9.9 -9.999 -99.9 -99.99 -9.99
2020/02/14 09:30 EST    3.31   2.81   16  344   23  30.2  41.7 1024.4 -9.9 -9.999 -99.9 -99.99 -9.99
2020/02/14 09:36 EST    3.42   2.90   17  345   26  30.0  41.7 1024.5 -9.9 -9.999 -99.9 -99.99 -9.99
2020/02/14 09:42 EST    3.52   2.96   21  329   24  30.0  41.7 1024.7 -9.9 -9.999 -99.9 -99.99 -9.99
2020/02/14 09:48 EST    3.63   3.11   19  333   28  29.8  41.5 1025.0 -9.9 -9.999 -99.9 -99.99 -9.99
2020/02/14 09:54 EST    3.73   3.20   18  337   24  29.8  41.5 1025.1 -9.9 -9.999 -99.9 -99.99 -9.99
2020/02/14 10:00 EST    3.83   3.26   20  336   28  29.8  41.5 1025.1 -9.9 -9.999 -99.9 -99.99 -9.99
2020/02/14 10:06 EST    3.92   3.36   21  336   27  30.4  41.5 1025.1 -9.9 -9.999 -99.9 -99.99 -9.99
2020/02/14 10:12 EST    4.01   3.46   23  334   27  30.2  41.5 1025.3 -9.9 -9.999 -99.9 -99.99 -9.99
2020/02/14 10:18 EST    4.10   3.54   17  330   26  30.9  41.5 1025.5 -9.9 -9.999 -99.9 -99.99 -9.99
2020/02/14 10:24 EST    4.18   3.62   20  328   26  30.6  41.5 1025.5 -9.9 -9.999 -99.9 -99.99 -9.99
2020/02/14 10:30 EST    4.26   3.65   21  320   25  30.2  41.5 1025.6 -9.9 -9.999 -99.9 -99.99 -9.99
2020/02/14 10:36 EST    4.33   3.75   21  322   25  29.8  41.5 1025.7 -9.9 -9.999 -99.9 -99.99 -9.99
2020/02/14 10:42 EST    4.40   3.82   19  327   23  30.0  41.5 1025.7 -9.9 -9.999 -99.9 -99.99 -9.99
2020/02/14 10:48 EST    4.47   3.88   21  332   26  30.6  41.5 1025.8 -9.9 -9.999 -99.9 -99.99 -9.99
2020/02/14 10:54 EST    4.53   3.93   18  323   23  30.2  41.5 1025.8 -9.9 -9.999 -99.9 -99.99 -9.99
2020/02/14 11:00 EST    4.59   4.01   19  322   27  30.0  41.9 1025.7 -9.9 -9.999 -99.9 -99.99 -9.99
2020/02/14 11:06 EST    4.64   4.06   19  319   23  30.4  41.9 1025.6 -9.9 -9.999 -99.9 -99.99 -9.99
2020/02/14 11:12 EST    4.68   4.15   19  320   23  30.6  42.1 1025.8 -9.9 -9.999 -99.9 -99.99 -9.99
2020/02/14 11:18 EST    4.72   4.22   22  322   29  30.4  42.1 1025.8 -9.9 -9.999 -99.9 -99.99 -9.99
2020/02/14 11:24 EST    4.76   4.24   23  320   28  30.0  42.1 1025.8 -9.9 -9.999 -99.9 -99.99 -9.99
2020/02/14 11:30 EST    4.79   4.28   21  313   29  29.7  42.1 1025.8 -9.9 -9.999 -99.9 -99.99 -9.99
2020/02/14 11:36 EST    4.81   4.34   22  318   26  29.8  42.1 1025.8 -9.9 -9.999 -99.9 -99.99 -9.99
2020/02/14 11:42 EST    4.82   4.38   19  318   28  30.4  42.1 1025.8 -9.9 -9.999 -99.9 -99.99 -9.99
2020/02/14 11:48 EST    4.83   4.41   21  325   27  29.8  42.1 1025.9 -9.9 -9.999 -99.9 -99.99 -9.99
2020/02/14 11:54 EST    4.83   4.41   18  331   24  29.8  42.1 1025.8 -9.9 -9.999 -99.9 -99.99 -9.99
2020/02/14 12:00 EST    4.83   4.41   21  334   25  30.2  42.1 1025.8 -9.9 -9.999 -99.9 -99.99 -9.99
2020/02/14 12:06 EST    4.81   4.45   18  335   23  30.7  42.1 1025.7 -9.9 -9.999 -99.9 -99.99 -9.99
2020/02/14 12:12 EST    4.79   4.41   19  330   25  30.2  42.1 1025.7 -9.9 -9.999 -99.9 -99.99 -9.99
2020/02/14 12:18 EST    4.76   4.41   17  330   23  30.2  42.1 1025.7 -9.9 -9.999 -99.9 -99.99 -9.99
2020/02/14 12:24 EST    4.73   4.43   18  330   22  30.6  42.1 1025.7 -9.9 -9.999 -99.9 -99.99 -9.99
2020/02/14 12:30 EST    4.68   4.35   17  335   24  30.4  42.1 1025.7 -9.9 -9.999 -99.9 -99.99 -9.99
2020/02/14 12:36 EST    4.63   4.31   19  318   23  30.0  42.1 1025.7 -9.9 -9.999 -99.9 -99.99 -9.99
2020/02/14 12:42 EST    4.57   4.29   21  313   27  29.5  42.1 1025.6 -9.9 -9.999 -99.9 -99.99 -9.99
2020/02/14 12:48 EST    4.51   4.22   19  308   23  29.7  42.1 1025.5 -9.9 -9.999 -99.9 -99.99 -9.99
2020/02/14 12:54 EST    4.44   4.13   20  315   24  29.7  41.9 1025.7 -9.9 -9.999 -99.9 -99.99 -9.99
2020/02/14 13:00 EST    4.36   4.05   19  321   24  30.0  42.1 1025.8 -9.9 -9.999 -99.9 -99.99 -9.99
2020/02/14 13:06 EST    4.27   3.94   19  322   24  29.3  42.1 1025.9 -9.9 -9.999 -99.9 -99.99 -9.99
2020/02/14 13:12 EST    4.18   3.86   17  328   20  29.8  42.1 1025.9 -9.9 -9.999 -99.9 -99.99 -9.99
2020/02/14 13:18 EST    4.08   3.75   17  337   23  29.8  42.1 1025.8 -9.9 -9.999 -99.9 -99.99 -9.99
2020/02/14 13:24 EST    3.98   3.69   17  335   23  29.8  42.1 1026.1 -9.9 -9.999 -99.9 -99.99 -9.99
2020/02/14 13:30 EST    3.87   3.55   15  330   22  29.5  42.1 1026.1 -9.9 -9.999 -99.9 -99.99 -9.99
2020/02/14 13:36 EST    3.76   3.51   15  334   21  29.3  41.9 1026.2 -9.9 -9.999 -99.9 -99.99 -9.99
2020/02/14 13:42 EST    3.64   3.38   14  331   17  29.8  41.9 1026.2 -9.9 -9.999 -99.9 -99.99 -9.99
2020/02/14 13:48 EST    3.52   3.29   17  328   21  30.2  41.9 1026.4 -9.9 -9.999 -99.9 -99.99 -9.99
2020/02/14 13:54 EST    3.40   3.19   17  329   22  29.1  41.9 1026.5 -9.9 -9.999 -99.9 -99.99 -9.99
2020/02/14 14:00 EST    3.27   3.11   15  324   19  29.7  41.9 1026.5 -9.9 -9.999 -99.9 -99.99 -9.99
2020/02/14 14:06 EST    3.14   2.98   17  319   20  29.5  42.1 1026.7 -9.9 -9.999 -99.9 -99.99 -9.99
2020/02/14 14:12 EST    3.01   2.89   16  309   22  28.9  41.9 1026.8 -9.9 -9.999 -99.9 -99.99 -9.99
2020/02/14 14:18 EST    2.88   2.81   16  332   20  29.7  41.9 1026.9 -9.9 -9.999 -99.9 -99.99 -9.99
2020/02/14 14:24 EST    2.75   2.69   13  342   17  30.0  42.1 1026.9 -9.9 -9.999 -99.9 -99.99 -9.99
2020/02/14 14:30 EST    2.62   2.61   15  330   19  29.8  42.1 1026.9 -9.9 -9.999 -99.9 -99.99 -9.99
2020/02/14 14:36 EST    2.49   2.57   16  338   22  30.2  42.1 1027.0 -9.9 -9.999 -99.9 -99.99 -9.99
2020/02/14 14:42 EST    2.36   2.40   14  348   21  30.0  42.1 1027.2 -9.9 -9.999 -99.9 -99.99 -9.99
2020/02/14 14:48 EST    2.23   2.31   12  345   17  30.0  42.1 1027.2 -9.9 -9.999 -99.9 -99.99 -9.99
2020/02/14 14:54 EST    2.10   2.25   14    3   20  29.7  42.1 1027.3 -9.9 -9.999 -99.9 -99.99 -9.99
2020/02/14 15:00 EST    1.97   2.17   13  351   20  29.8  42.1 1027.3 -9.9 -9.999 -99.9 -99.99 -9.99
2020/02/14 15:06 EST    1.85   2.05   15  346   18  29.7  42.1 1027.4 -9.9 -9.999 -99.9 -99.99 -9.99
2020/02/14 15:12 EST    1.73   1.96   16  323   23  29.7  42.1 1027.5 -9.9 -9.999 -99.9 -99.99 -9.99
2020/02/14 15:18 EST    1.61   1.81   16  338   21  29.5  42.1 1027.7 -9.9 -9.999 -99.9 -99.99 -9.99
2020/02/14 15:24 EST    1.49   1.73   16  333   20  29.5  42.1 1027.8 -9.9 -9.999 -99.9 -99.99 -9.99
2020/02/14 15:30 EST    1.37   1.60   19  320   23  29.1  42.1 1027.9 -9.9 -9.999 -99.9 -99.99 -9.99
2020/02/14 15:36 EST    1.26   1.53   13  332   21  28.9  42.1 1028.1 -9.9 -9.999 -99.9 -99.99 -9.99
2020/02/14 15:42 EST    1.15   1.43   11  329   16  29.3  42.1 1028.2 -9.9 -9.999 -99.9 -99.99 -9.99
2020/02/14 15:48 EST    1.05   1.29   11  317   18  29.3  42.1 1028.3 -9.9 -9.999 -99.9 -99.99 -9.99
2020/02/14 15:54 EST    0.95   1.22   11  352   21  29.3  42.1 1028.4 -9.9 -9.999 -99.9 -99.99 -9.99
2020/02/14 16:00 EST    0.85   1.09   13  319   19  29.1  42.1 1028.5 -9.9 -9.999 -99.9 -99.99 -9.99
2020/02/14 16:06 EST    0.75   1.03   10  352   18  29.7  42.1 1028.7 -9.9 -9.999 -99.9 -99.99 -9.99
2020/02/14 16:12 EST    0.66   0.93   14  343   19  29.3  42.1 1028.8 -9.9 -9.999 -99.9 -99.99 -9.99
2020/02/14 16:18 EST    0.57   0.83   12  337   16  29.5  42.1 1028.9 -9.9 -9.999 -99.9 -99.99 -9.99
2020/02/14 16:24 EST    0.48   0.76   11  334   18  29.3  42.1 1028.9 -9.9 -9.999 -99.9 -99.99 -9.99
2020/02/14 16:30 EST    0.40   0.68   16  310   21  29.3  42.1 1028.9 -9.9 -9.999 -99.9 -99.99 -9.99
2020/02/14 16:36 EST    0.32   0.56   12  336   21  28.9  42.1 1029.1 -9.9 -9.999 -99.9 -99.99 -9.99
2020/02/14 16:42 EST    0.24   0.46   11  334   18  28.6  41.9 1029.2 -9.9 -9.999 -99.9 -99.99 -9.99
2020/02/14 16:48 EST    0.17   0.41   13  339   17  28.6  41.9 1029.3 -9.9 -9.999 -99.9 -99.99 -9.99
2020/02/14 16:54 EST    0.10   0.32   16  333   19  28.4  41.9 1029.4 -9.9 -9.999 -99.9 -99.99 -9.99
2020/02/14 17:00 EST    0.04   0.20   15  324   20  28.8  41.9 1029.5 -9.9 -9.999 -99.9 -99.99 -9.99
2020/02/14 17:06 EST   -0.02   0.15   11  332   21  28.4  41.9 1029.7 -9.9 -9.999 -99.9 -99.99 -9.99
2020/02/14 17:12 EST   -0.08   0.09    9  341   18  28.4  41.9 1029.8 -9.9 -9.999 -99.9 -99.99 -9.99
2020/02/14 17:18 EST   -0.13   0.03   14  329   20  28.0  41.9 1029.9 -9.9 -9.999 -99.9 -99.99 -9.99
2020/02/14 17:24 EST   -0.17   0.01   15  344   21  27.9  41.9 1030.1 -9.9 -9.999 -99.9 -99.99 -9.99
2020/02/14 17:30 EST   -0.21  -0.09   11  337   17  27.9  41.9 1030.2 -9.9 -9.999 -99.9 -99.99 -9.99
2020/02/14 17:36 EST   -0.25  -0.10   14  331   19  27.7  41.7 1030.3 -9.9 -9.999 -99.9 -99.99 -9.99
2020/02/14 17:42 EST   -0.28  -0.14   17  332   21  27.3  41.7 1030.4 -9.9 -9.999 -99.9 -99.99 -9.99
2020/02/14 17:48 EST   -0.30  -0.18   12  332   17  27.5  41.7 1030.6 -9.9 -9.999 -99.9 -99.99 -9.99
2020/02/14 17:54 EST   -0.32  -0.17   15  332   18  27.3  41.7 1030.8 -9.9 -9.999 -99.9 -99.99 -9.99
2020/02/14 18:00 EST   -0.33  -0.20   10  359   18  27.1  41.7 1031.0 -9.9 -9.999 -99.9 -99.99 -9.99
2020/02/14 18:06 EST   -0.34  -0.20   11  344   17  27.1  41.7 1031.2 -9.9 -9.999 -99.9 -99.99 -9.99
2020/02/14 18:12 EST   -0.34  -0.21   14  331   18  27.1  41.7 1031.4 -9.9 -9.999 -99.9 -99.99 -9.99
2020/02/14 18:18 EST   -0.33  -0.21   17  321   19  27.1  41.5 1031.5 -9.9 -9.999 -99.9 -99.99 -9.99
2020/02/14 18:24 EST   -0.32  -0.15   12  347   18  27.0  41.4 1031.6 -9.9 -9.999 -99.9 -99.99 -9.99
2020/02/14 18:30 EST   -0.30  -0.14   12  351   19  26.6  41.4 1031.8 -9.9 -9.999 -99.9 -99.99 -9.99
2020/02/14 18:36 EST   -0.27  -0.11   11  336   17  26.4  41.5 1031.9 -9.9 -9.999 -99.9 -99.99 -9.99
2020/02/14 18:42 EST   -0.24  -0.05   15  330   18  26.4  41.7 1032.1 -9.9 -9.999 -99.9 -99.99 -9.99
2020/02/14 18:48 EST   -0.19   0.02   17  320   20  26.6  41.7 1032.2 -9.9 -9.999 -99.9 -99.99 -9.99
2020/02/14 18:54 EST   -0.15   0.13   13  347   20  26.1  41.5 1032.3 -9.9 -9.999 -99.9 -99.99 -9.99
2020/02/14 19:00 EST   -0.09   0.18   13  339   18  26.1  41.4 1032.5 -9.9 -9.999 -99.9 -99.99 -9.99
2020/02/14 19:06 EST   -0.03   0.29   16  327   21  26.1  41.5 1032.5 -9.9 -9.999 -99.9 -99.99 -9.99
2020/02/14 19:12 EST    0.04   0.39   16  323   21  25.9  41.5 1032.6 -9.9 -9.999 -99.9 -99.99 -9.99
2020/02/14 19:18 EST    0.12   0.50   15  330   20  25.7  41.4 1032.8 -9.9 -9.999 -99.9 -99.99 -9.99
2020/02/14 19:24 EST    0.20   0.60   16  326   20  25.7  41.4 1032.9 -9.9 -9.999 -99.9 -99.99 -9.99
2020/02/14 19:30 EST    0.29   0.68   14  341   22  25.3  41.4 1033.0 -9.9 -9.999 -99.9 -99.99 -9.99
2020/02/14 19:36 EST    0.38   0.79   16  330   22  25.2  41.4 1033.1 -9.9 -9.999 -99.9 -99.99 -9.99
2020/02/14 19:42 EST    0.48   0.89   15  329   20  25.0  41.2 1033.2 -9.9 -9.999 -99.9 -99.99 -9.99
2020/02/14 19:48 EST    0.58   0.99   13  336   19  25.2  41.2 1033.3 -9.9 -9.999 -99.9 -99.99 -9.99
2020/02/14 19:54 EST    0.69   1.10   16  341   20  24.8  41.2 1033.5 -9.9 -9.999 -99.9 -99.99 -9.99
2020/02/14 20:00 EST    0.80   1.19   13  341   20  24.8  41.2 1033.5 -9.9 -9.999 -99.9 -99.99 -9.99
2020/02/14 20:06 EST    0.92   1.31   15  328   19  24.8  41.2 1033.7 -9.9 -9.999 -99.9 -99.99 -9.99
2020/02/14 20:12 EST    1.04   1.40   13  335   21  24.6  41.2 1033.7 -9.9 -9.999 -99.9 -99.99 -9.99
2020/02/14 20:18 EST    1.16   1.52   16  337   22  24.4  41.2 1033.8 -9.9 -9.999 -99.9 -99.99 -9.99
2020/02/14 20:24 EST    1.29   1.66   14  346   19  24.3  41.2 1033.9 -9.9 -9.999 -99.9 -99.99 -9.99
2020/02/14 20:30 EST    1.42   1.79   14  334   20  24.3  41.2 1034.0 -9.9 -9.999 -99.9 -99.99 -9.99
2020/02/14 20:36 EST    1.54   1.90   12  341   20  23.9  41.0 1034.1 -9.9 -9.999 -99.9 -99.99 -9.99
2020/02/14 20:42 EST    1.67   2.05   10  341   18  23.7  41.0 1034.2 -9.9 -9.999 -99.9 -99.99 -9.99
2020/02/14 20:48 EST    1.80   2.19   15  344   20  23.7  41.0 1034.4 -9.9 -9.999 -99.9 -99.99 -9.99
2020/02/14 20:54 EST    1.94   2.34   16  331   19  23.5  40.8 1034.4 -9.9 -9.999 -99.9 -99.99 -9.99
2020/02/14 21:00 EST    2.07   2.45   15  338   19  23.4  40.8 1034.6 -9.9 -9.999 -99.9 -99.99 -9.99
2020/02/14 21:06 EST    2.20   2.58   13  345   22  23.4  40.8 1034.5 -9.9 -9.999 -99.9 -99.99 -9.99
2020/02/14 21:12 EST    2.33   2.72   14  340   20  23.0  40.8 1034.7 -9.9 -9.999 -99.9 -99.99 -9.99
2020/02/14 21:18 EST    2.46   2.84   14  341   20  23.0  40.8 1034.8 -9.9 -9.999 -99.9 -99.99 -9.99
2020/02/14 21:24 EST    2.59   2.93   14  344   21  23.0  40.8 1034.9 -9.9 -9.999 -99.9 -99.99 -9.99
2020/02/14 21:30 EST    2.72   3.05    9    0   20  23.0  40.8 1035.0 -9.9 -9.999 -99.9 -99.99 -9.99
2020/02/14 21:36 EST    2.85   3.18   12  357   21  22.8  40.8 1035.0 -9.9 -9.999 -99.9 -99.99 -9.99
2020/02/14 21:42 EST    2.97   3.23   16  339   21  22.5  40.8 1035.2 -9.9 -9.999 -99.9 -99.99 -9.99
2020/02/14 21:48 EST    3.09   3.38   12  354   20  22.6  41.0 1035.3 -9.9 -9.999 -99.9 -99.99 -9.99
2020/02/14 21:54 EST    3.22   3.50   13    0   19  22.6  40.8 1035.5 -9.9 -9.999 -99.9 -99.99 -9.99
2020/02/14 22:00 EST    3.33   3.60   10  354   20  22.5  40.8 1035.5 -9.9 -9.999 -99.9 -99.99 -9.99
2020/02/14 22:06 EST    3.45   3.67   13  348   22  22.3  40.8 1035.6 -9.9 -9.999 -99.9 -99.99 -9.99
2020/02/14 22:12 EST    3.57   3.83   13    1   19  22.1  40.8 1035.6 -9.9 -9.999 -99.9 -99.99 -9.99
2020/02/14 22:18 EST    3.68   3.92   12  349   17  21.9  40.8 1035.6 -9.9 -9.999 -99.9 -99.99 -9.99
2020/02/14 22:24 EST    3.79   4.00   11  352   18  21.7  40.8 1035.6 -9.9 -9.999 -99.9 -99.99 -9.99
2020/02/14 22:30 EST    3.90   4.11   14  342   20  21.6  40.8 1035.7 -9.9 -9.999 -99.9 -99.99 -9.99
2020/02/14 22:36 EST    4.00   4.17   12  348   21  21.4  41.0 1035.8 -9.9 -9.999 -99.9 -99.99 -9.99
2020/02/14 22:42 EST    4.10   4.25   14  342   22  21.2  40.8 1035.9 -9.9 -9.999 -99.9 -99.99 -9.99
2020/02/14 22:48 EST    4.20   4.35   13  343   21  21.2  41.4 1035.9 -9.9 -9.999 -99.9 -99.99 -9.99
2020/02/14 22:54 EST    4.29   4.43   13  349   20  21.0  41.7 1036.0 -9.9 -9.999 -99.9 -99.99 -9.99
2020/02/14 23:00 EST    4.38   4.53   11  347   17  20.8  41.7 1036.0 -9.9 -9.999 -99.9 -99.99 -9.99
2020/02/14 23:06 EST    4.47   4.61   12  344   16  20.8  41.7 1036.0 -9.9 -9.999 -99.9 -99.99 -9.99
2020/02/14 23:12 EST    4.55   4.69    9  349   15  20.8  41.7 1036.1 -9.9 -9.999 -99.9 -99.99 -9.99
2020/02/14 23:18 EST    4.63   4.75   10    0   15  20.8  41.9 1036.2 -9.9 -9.999 -99.9 -99.99 -9.99
2020/02/14 23:24 EST    4.70   4.84   12  350   18  20.5  41.9 1036.1 -9.9 -9.999 -99.9 -99.99 -9.99
2020/02/14 23:30 EST    4.77   4.91   10    3   16  20.5  41.9 1036.2 -9.9 -9.999 -99.9 -99.99 -9.99
2020/02/14 23:36 EST    4.83   4.93   12    5   16  20.3  41.9 1036.1 -9.9 -9.999 -99.9 -99.99 -9.99
2020/02/14 23:42 EST    4.89   5.02   11    6   17  20.1  41.9 1036.3 -9.9 -9.999 -99.9 -99.99 -9.99
2020/02/14 23:48 EST    4.94   5.06   10  356   17  20.1  41.7 1036.3 -9.9 -9.999 -99.9 -99.99 -9.99
2020/02/14 23:54 EST    4.99   5.11   10  360   16  20.1  41.7 1036.4 -9.9 -9.999 -99.9 -99.99 -9.99
2020/02/15 00:00 EST    5.03   5.15   11  349   16  19.9  41.7 1036.5 -9.9 -9.999 -99.9 -99.99 -9.99
2020/02/15 00:06 EST    5.06   5.22   11  347   16  19.8  41.7 1036.7 -9.9 -9.999 -99.9 -99.99 -9.99
2020/02/15 00:12 EST    5.09   5.27    8  356   16  19.9  41.7 1036.6 -9.9 -9.999 -99.9 -99.99 -9.99
2020/02/15 00:18 EST    5.10   5.28   11    2   18  19.8  41.7 1036.7 -9.9 -9.999 -99.9 -99.99 -9.99
2020/02/15 00:24 EST    5.12   5.33   12    6   19  19.8  41.7 1036.7 -9.9 -9.999 -99.9 -99.99 -9.99
2020/02/15 00:30 EST    5.12   5.37    9    4   14  19.6  41.7 1036.9 -9.9 -9.999 -99.9 -99.99 -9.99
2020/02/15 00:36 EST    5.11   5.38   10  353   16  19.4  41.5 1036.8 -9.9 -9.999 -99.9 -99.99 -9.99
2020/02/15 00:42 EST    5.10   5.35   12   10   15  19.6  41.7 1036.9 -9.9 -9.999 -99.9 -99.99 -9.99
2020/02/15 00:48 EST    5.08   5.39    8   11   16  19.4  41.5 1036.8 -9.9 -9.999 -99.9 -99.99 -9.99
2020/02/15 00:54 EST    5.06   5.37    9  354   12  19.2  41.5 1036.9 -9.9 -9.999 -99.9 -99.99 -9.99
2020/02/15 01:00 EST    5.02   5.35    9    2   13  19.0  41.5 1036.8 -9.9 -9.999 -99.9 -99.99 -9.99
2020/02/15 01:06 EST    4.98   5.31    6  358   12  19.0  41.5 1037.0 -9.9 -9.999 -99.9 -99.99 -9.99
2020/02/15 01:12 EST    4.93   5.28    4    1   11  19.0  41.5 1037.0 -9.9 -9.999 -99.9 -99.99 -9.99
2020/02/15 01:18 EST    4.87   5.24    8  349   11  19.0  41.5 1036.9 -9.9 -9.999 -99.9 -99.99 -9.99
2020/02/15 01:24 EST    4.80   5.19    8  342   13  18.9  41.5 1036.9 -9.9 -9.999 -99.9 -99.99 -9.99
2020/02/15 01:30 EST    4.73   5.14    7    3   12  19.0  41.5 1036.9 -9.9 -9.999 -99.9 -99.99 -9.99
2020/02/15 01:36 EST    4.65   5.05    9  341   13  18.9  41.5 1036.8 -9.9 -9.999 -99.9 -99.99 -9.99
2020/02/15 01:42 EST    4.57   4.98    7  356   12  18.9  41.5 1036.8 -9.9 -9.999 -99.9 -99.99 -9.99
2020/02/15 01:48 EST    4.48   4.91    6   14   13  18.9  41.5 1036.8 -9.9 -9.999 -99.9 -99.99 -9.99
2020/02/15 01:54 EST    4.38   4.84    6  359   12  18.9  41.5 1036.9 -9.9 -9.999 -99.9 -99.99 -9.99
2020/02/15 02:00 EST    4.28   4.72    8  349   11  18.7  41.5 1037.0 -9.9 -9.999 -99.9 -99.99 -9.99
2020/02/15 02:06 EST    4.17   4.63    8    5   10  18.7  41.4 1037.0 -9.9 -9.999 -99.9 -99.99 -9.99
2020/02/15 02:12 EST    4.06   4.50    7  349   11  18.7  41.4 1037.0 -9.9 -9.999 -99.9 -99.99 -9.99
2020/02/15 02:18 EST    3.95   4.43    5   18   10  18.7  41.2 1037.0 -9.9 -9.999 -99.9 -99.99 -9.99
2020/02/15 02:24 EST    3.83   4.31    6  351   11  18.3  41.2 1036.9 -9.9 -9.999 -99.9 -99.99 -9.99
2020/02/15 02:30 EST    3.71   4.19    6  358    9  18.5  41.2 1036.9 -9.9 -9.999 -99.9 -99.99 -9.99
2020/02/15 02:36 EST    3.59   4.08    5    2    9  18.3  41.0 1037.0 -9.9 -9.999 -99.9 -99.99 -9.99
2020/02/15 02:42 EST    3.47   4.00    6    4    8  18.5  41.0 1037.0 -9.9 -9.999 -99.9 -99.99 -9.99
2020/02/15 02:48 EST    3.34   3.85    5   18   10  18.3  40.8 1036.9 -9.9 -9.999 -99.9 -99.99 -9.99
2020/02/15 02:54 EST    3.22   3.74    7  353   10  18.3  41.0 1036.9 -9.9 -9.999 -99.9 -99.99 -9.99
2020/02/15 03:00 EST    3.10   3.62    4   19   10  18.3  41.0 1037.0 -9.9 -9.999 -99.9 -99.99 -9.99
2020/02/15 03:06 EST    2.97   3.48    4  357    7  18.1  41.0 1036.9 -9.9 -9.999 -99.9 -99.99 -9.99
2020/02/15 03:12 EST    2.85   3.36    6  355    9  18.1  41.0 1037.0 -9.9 -9.999 -99.9 -99.99 -9.99
2020/02/15 03:18 EST    2.72   3.26    5   21    8  18.3  41.0 1037.1 -9.9 -9.999 -99.9 -99.99 -9.99
2020/02/15 03:24 EST    2.60   3.11    4   14    9  18.3  40.8 1037.3 -9.9 -9.999 -99.9 -99.99 -9.99
2020/02/15 03:30 EST    2.48   3.00    6  353   11  18.1  40.8 1037.4 -9.9 -9.999 -99.9 -99.99 -9.99
2020/02/15 03:36 EST    2.36   2.87    6  349   10  18.1  40.8 1037.4 -9.9 -9.999 -99.9 -99.99 -9.99
2020/02/15 03:42 EST    2.24   2.78    7    7   10  18.1  40.6 1037.6 -9.9 -9.999 -99.9 -99.99 -9.99
2020/02/15 03:48 EST    2.13   2.65    7  358   10  18.1  40.6 1037.6 -9.9 -9.999 -99.9 -99.99 -9.99
2020/02/15 03:54 EST    2.01   2.55    5    1    7  18.1  40.6 1037.6 -9.9 -9.999 -99.9 -99.99 -9.99
2020/02/15 04:00 EST    1.90   2.42    5  360    8  18.0  40.6 1037.7 -9.9 -9.999 -99.9 -99.99 -9.99
2020/02/15 04:06 EST    1.79   2.32    7    8   11  18.0  40.5 1037.8 -9.9 -9.999 -99.9 -99.99 -9.99
2020/02/15 04:12 EST    1.69   2.16    7    9   11  18.0  40.5 1037.8 -9.9 -9.999 -99.9 -99.99 -9.99
2020/02/15 04:18 EST    1.58   2.08    7    8   12  18.0  40.3 1037.8 -9.9 -9.999 -99.9 -99.99 -9.99
2020/02/15 04:24 EST    1.48   1.97    4  350    9  17.8  40.3 1037.8 -9.9 -9.999 -99.9 -99.99 -9.99
2020/02/15 04:30 EST    1.38   1.86    5   15    7  18.0  40.6 1037.8 -9.9 -9.999 -99.9 -99.99 -9.99
2020/02/15 04:36 EST    1.29   1.75    5    6    7  18.0  41.4 1037.8 -9.9 -9.999 -99.9 -99.99 -9.99
2020/02/15 04:42 EST    1.19   1.66    4   15    7  18.1  41.4 1037.7 -9.9 -9.999 -99.9 -99.99 -9.99
2020/02/15 04:48 EST    1.10   1.57    4   13    6  18.1  41.5 1037.6 -9.9 -9.999 -99.9 -99.99 -9.99
2020/02/15 04:54 EST    1.01   1.46    3  357    6  17.8  41.5 1037.6 -9.9 -9.999 -99.9 -99.99 -9.99
2020/02/15 05:00 EST    0.93   1.36    3   17    5  18.1  41.5 1037.6 -9.9 -9.999 -99.9 -99.99 -9.99
2020/02/15 05:06 EST    0.85   1.29    3   35    4  17.8  41.5 1037.4 -9.9 -9.999 -99.9 -99.99 -9.99
2020/02/15 05:12 EST    0.77   1.18    5  346    7  17.8  41.4 1037.6 -9.9 -9.999 -99.9 -99.99 -9.99
2020/02/15 05:18 EST    0.69   1.11    5  358    8  18.0  41.4 1037.8 -9.9 -9.999 -99.9 -99.99 -9.99
2020/02/15 05:24 EST    0.62   1.01    4   18    6  18.0  41.4 1037.7 -9.9 -9.999 -99.9 -99.99 -9.99
2020/02/15 05:30 EST    0.55   0.97    4   43    6  18.1  41.0 1037.8 -9.9 -9.999 -99.9 -99.99 -9.99
2020/02/15 05:36 EST    0.48   0.87    3   18    7  18.1  40.8 1038.0 -9.9 -9.999 -99.9 -99.99 -9.99
2020/02/15 05:42 EST    0.42   0.83    1   27    3  18.1  40.8 1038.0 -9.9 -9.999 -99.9 -99.99 -9.99
2020/02/15 05:48 EST    0.36   0.75    2   38    3  18.0  40.8 1038.1 -9.9 -9.999 -99.9 -99.99 -9.99
2020/02/15 05:54 EST    0.31   0.69    3  355    4  17.8  41.0 1038.1 -9.9 -9.999 -99.9 -99.99 -9.99
2020/02/15 06:00 EST    0.26   0.69    3    3    5  17.8  41.0 1038.2 -9.9 -9.999 -99.9 -99.99 -9.99
2020/02/15 06:06 EST    0.21   0.62    4  345    7  17.6  41.0 1038.3 -9.9 -9.999 -99.9 -99.99 -9.99
2020/02/15 06:12 EST    0.17   0.58    5  349    8  17.6  40.8 1038.3 -9.9 -9.999 -99.9 -99.99 -9.99
2020/02/15 06:18 EST    0.14   0.53    9  328   11  17.6  40.6 1038.5 -9.9 -9.999 -99.9 -99.99 -9.99
2020/02/15 06:24 EST    0.11   0.51    6  336   10  17.4  40.3 1038.5 -9.9 -9.999 -99.9 -99.99 -9.99
2020/02/15 06:30 EST    0.09   0.47    6  346   11  17.2  40.1 1038.5 -9.9 -9.999 -99.9 -99.99 -9.99
2020/02/15 06:36 EST    0.07   0.47    6  358    9  17.2  39.7 1038.5 -9.9 -9.999 -99.9 -99.99 -9.99
2020/02/15 06:42 EST    0.06   0.41    5  356    8  17.2  40.1 1038.4 -9.9 -9.999 -99.9 -99.99 -9.99
2020/02/15 06:48 EST    0.05   0.44    5    7    8  17.2  39.9 1038.3 -9.9 -9.999 -99.9 -99.99 -9.99
2020/02/15 06:54 EST    0.05   0.40    6  339    8  17.2  39.9 1038.4 -9.9 -9.999 -99.9 -99.99 -9.99
2020/02/15 07:00 EST    0.06   0.44    4  336    7  17.4  39.7 1038.4 -9.9 -9.999 -99.9 -99.99 -9.99
2020/02/15 07:06 EST    0.07   0.44    4  342    7  17.6  39.4 1038.4 -9.9 -9.999 -99.9 -99.99 -9.99
2020/02/15 07:12 EST    0.09   0.45    3   58    5  18.3  39.2 1038.4 -9.9 -9.999 -99.9 -99.99 -9.99
2020/02/15 07:18 EST    0.12   0.49    5   29    6  18.3  39.0 1038.5 -9.9 -9.999 -99.9 -99.99 -9.99
2020/02/15 07:24 EST    0.16   0.54    2   56    5  19.0  39.0 1038.6 -9.9 -9.999 -99.9 -99.99 -9.99
2020/02/15 07:30 EST    0.20   0.56    4   56    5  19.0  39.0 1038.5 -9.9 -9.999 -99.9 -99.99 -9.99
2020/02/15 07:36 EST    0.24   0.64    3   37    4  19.4  39.4 1038.5 -9.9 -9.999 -99.9 -99.99 -9.99
2020/02/15 07:42 EST    0.30   0.70    4   67    7  19.4  39.4 1038.5 -9.9 -9.999 -99.9 -99.99 -9.99
2020/02/15 07:48 EST    0.36   0.77    5   71   10  19.2  39.2 1038.6 -9.9 -9.999 -99.9 -99.99 -9.99
2020/02/15 07:54 EST    0.42   0.84    3   75    5  19.6  39.2 1038.7 -9.9 -9.999 -99.9 -99.99 -9.99
2020/02/15 08:00 EST    0.49   0.90    4   63    6  19.9  39.2 1038.7 -9.9 -9.999 -99.9 -99.99 -9.99
2020/02/15 08:06 EST    0.57   1.02    5   67    8  19.8  39.2 1038.7 -9.9 -9.999 -99.9 -99.99 -9.99
2020/02/15 08:12 EST    0.65   1.09    5   91    7  19.9  39.2 1038.8 -9.9 -9.999 -99.9 -99.99 -9.99
2020/02/15 08:18 EST    0.74   1.19    4   94    7  20.5  39.2 1038.8 -9.9 -9.999 -99.9 -99.99 -9.99
2020/02/15 08:24 EST    0.83   1.27    6   84    7  19.9  39.2 1038.9 -9.9 -9.999 -99.9 -99.99 -9.99
2020/02/15 08:30 EST    0.92   1.38    4   65    5  20.1  39.2 1038.9 -9.9 -9.999 -99.9 -99.99 -9.99
2020/02/15 08:36 EST    1.02   1.43    7   93    8  19.8  39.4 1038.8 -9.9 -9.999 -99.9 -99.99 -9.99
2020/02/15 08:42 EST    1.12   1.56    5   53    7  19.9  39.4 1038.9 -9.9 -9.999 -99.9 -99.99 -9.99
2020/02/15 08:48 EST    1.22   1.67    5   39    7  20.1  39.6 1038.9 -9.9 -9.999 -99.9 -99.99 -9.99
2020/02/15 08:54 EST    1.33   1.73    1   21    6  21.0  39.6 1038.8 -9.9 -9.999 -99.9 -99.99 -9.99
2020/02/15 09:00 EST    1.44   1.83    3   87    6  20.8  39.6 1038.9 -9.9 -9.999 -99.9 -99.99 -9.99
2020/02/15 09:06 EST    1.55   1.90    3   82    8  21.4  39.6 1039.0 -9.9 -9.999 -99.9 -99.99 -9.99
2020/02/15 09:12 EST    1.66   2.04    5   63    7  20.3  39.4 1039.1 -9.9 -9.999 -99.9 -99.99 -9.99
2020/02/15 09:18 EST    1.77   2.12    3   89    5  20.8  39.6 1039.0 -9.9 -9.999 -99.9 -99.99 -9.99
2020/02/15 09:24 EST    1.88   2.21    3   53    7  21.0  39.7 1039.0 -9.9 -9.999 -99.9 -99.99 -9.99
2020/02/15 09:30 EST    1.99   2.32    4   69    6  20.5  39.7 1039.0 -9.9 -9.999 -99.9 -99.99 -9.99
2020/02/15 09:36 EST    2.11   2.44    1   86    7  21.0  39.7 1039.0 -9.9 -9.999 -99.9 -99.99 -9.99
2020/02/15 09:42 EST    2.22   2.50    4   52    8  20.7  39.7 1039.0 -9.9 -9.999 -99.9 -99.99 -9.99
2020/02/15 09:48 EST    2.33   2.59    4   90    7  20.3  39.7 1039.0 -9.9 -9.999 -99.9 -99.99 -9.99
2020/02/15 09:54 EST    2.44 -99.99 -999 -999 -999 -99.9 -99.9 -999.9 -9.9 -9.999 -99.9 -99.99 -9.99
2020/02/15 10:00 EST    2.55 -99.99 -999 -999 -999 -99.9 -99.9 -999.9 -9.9 -9.999 -99.9 -99.99 -9.99
2020/02/15 10:06 EST    2.66 -99.99 -999 -999 -999 -99.9 -99.9 -999.9 -9.9 -9.999 -99.9 -99.99 -9.99
2020/02/15 10:12 EST    2.76   2.98    4   56    7  21.7  39.7 1039.0 -9.9 -9.999 -99.9 -99.99 -9.99
2020/02/15 10:18 EST    2.87   3.11    4   48    8  21.2  39.7 1039.0 -9.9 -9.999 -99.9 -99.99 -9.99
2020/02/15 10:24 EST    2.97   3.16    5   66    8  20.8  39.7 1039.1 -9.9 -9.999 -99.9 -99.99 -9.99
2020/02/15 10:30 EST    3.07   3.19    4   74    9  20.8  39.7 1039.0 -9.9 -9.999 -99.9 -99.99 -9.99
2020/02/15 10:36 EST    3.17   3.32    4   85    7  21.0  39.7 1038.8 -9.9 -9.999 -99.9 -99.99 -9.99
2020/02/15 10:42 EST    3.27   3.37    5   98    6  21.2  39.7 1038.7 -9.9 -9.999 -99.9 -99.99 -9.99
2020/02/15 10:48 EST    3.37   3.47    3  122    7  22.1  39.7 1038.6 -9.9 -9.999 -99.9 -99.99 -9.99
2020/02/15 10:54 EST    3.46   3.53    5  133    6  21.6  39.7 1038.7 -9.9 -9.999 -99.9 -99.99 -9.99
2020/02/15 11:00 EST    3.55   3.60    4  170    6  21.6  39.9 1038.6 -9.9 -9.999 -99.9 -99.99 -9.99
2020/02/15 11:06 EST    3.63   3.69    3  159    5  22.6  40.5 1038.5 -9.9 -9.999 -99.9 -99.99 -9.99
2020/02/15 11:12 EST    3.72   3.74    3  113    5  22.6  40.5 1038.2 -9.9 -9.999 -99.9 -99.99 -9.99
2020/02/15 11:18 EST    3.80   3.81    4  150    6  22.3  40.8 1038.1 -9.9 -9.999 -99.9 -99.99 -9.99
2020/02/15 11:24 EST    3.88   3.89    3   67    6  22.5  40.8 1038.0 -9.9 -9.999 -99.9 -99.99 -9.99
2020/02/15 11:30 EST    3.95   3.95    8  116   10  21.6  40.8 1037.8 -9.9 -9.999 -99.9 -99.99 -9.99
2020/02/15 11:36 EST    4.02   4.02    5  122    9  22.3  40.8 1037.8 -9.9 -9.999 -99.9 -99.99 -9.99
2020/02/15 11:42 EST    4.09   4.07    3  126    9  23.4  40.8 1037.6 -9.9 -9.999 -99.9 -99.99 -9.99
2020/02/15 11:48 EST    4.15   4.16    5  122    8  22.3  41.0 1037.4 -9.9 -9.999 -99.9 -99.99 -9.99
2020/02/15 11:54 EST    4.21   4.18    3  168    8  23.0  41.0 1037.2 -9.9 -9.999 -99.9 -99.99 -9.99
2020/02/15 12:00 EST    4.26   4.27    5  152    8  22.3  41.0 1037.2 -9.9 -9.999 -99.9 -99.99 -9.99
2020/02/15 12:06 EST    4.31   4.31    5  156    8  22.6  41.0 1037.1 -9.9 -9.999 -99.9 -99.99 -9.99
2020/02/15 12:12 EST    4.35   4.31    6  131    9  22.6  41.0 1037.0 -9.9 -9.999 -99.9 -99.99 -9.99
2020/02/15 12:18 EST    4.38   4.33    4  124    9  22.6  41.0 1037.0 -9.9 -9.999 -99.9 -99.99 -9.99
2020/02/15 12:24 EST    4.41   4.37    4  112    9  23.0  41.0 1036.9 -9.9 -9.999 -99.9 -99.99 -9.99
2020/02/15 12:30 EST    4.44   4.40    4  136    8  23.0  41.0 1036.8 -9.9 -9.999 -99.9 -99.99 -9.99
2020/02/15 12:36 EST    4.46   4.37    4   95    9  22.8  41.0 1036.6 -9.9 -9.999 -99.9 -99.99 -9.99
2020/02/15 12:42 EST    4.47   4.40    6   94    8  23.0  41.0 1036.5 -9.9 -9.999 -99.9 -99.99 -9.99
2020/02/15 12:48 EST    4.47   4.38    6  102   10  22.8  41.0 1036.2 -9.9 -9.999 -99.9 -99.99 -9.99
2020/02/15 12:54 EST    4.47   4.43    6   95   10  23.2  41.0 1036.1 -9.9 -9.999 -99.9 -99.99 -9.99
2020/02/15 13:00 EST    4.46   4.42    7  126    9  23.7  41.0 1035.8 -9.9 -9.999 -99.9 -99.99 -9.99
2020/02/15 13:06 EST    4.44   4.44    5   78    9  24.3  40.6 1035.6 -9.9 -9.999 -99.9 -99.99 -9.99
2020/02/15 13:12 EST    4.42   4.41    6  139    8  24.6  40.5 1035.6 -9.9 -9.999 -99.9 -99.99 -9.99
2020/02/15 13:18 EST    4.39   4.44    7  101   10  24.1  40.5 1035.3 -9.9 -9.999 -99.9 -99.99 -9.99
2020/02/15 13:24 EST    4.35   4.41    9   93   12  24.4  40.3 1035.1 -9.9 -9.999 -99.9 -99.99 -9.99
2020/02/15 13:30 EST    4.30   4.35    8  105   14  24.8  40.3 1035.0 -9.9 -9.999 -99.9 -99.99 -9.99
2020/02/15 13:36 EST    4.25   4.36    9  121   12  24.6  40.3 1034.7 -9.9 -9.999 -99.9 -99.99 -9.99
2020/02/15 13:42 EST    4.19   4.28    7  123   11  25.3  40.3 1034.6 -9.9 -9.999 -99.9 -99.99 -9.99
2020/02/15 13:48 EST    4.13   4.22    9  116   13  25.0  40.3 1034.4 -9.9 -9.999 -99.9 -99.99 -9.99
2020/02/15 13:54 EST    4.06   4.13    6  132   11  25.9  40.5 1034.3 -9.9 -9.999 -99.9 -99.99 -9.99
2020/02/15 14:00 EST    3.98   4.08   10  137   13  25.3  40.5 1034.3 -9.9 -9.999 -99.9 -99.99 -9.99
2020/02/15 14:06 EST    3.90   3.96   10  150   13  25.7  40.5 1034.1 -9.9 -9.999 -99.9 -99.99 -9.99
2020/02/15 14:12 EST    3.81   3.90   10  137   15  26.1  40.6 1033.9 -9.9 -9.999 -99.9 -99.99 -9.99
2020/02/15 14:18 EST    3.72   3.81   10  139   14  25.9  40.6 1033.8 -9.9 -9.999 -99.9 -99.99 -9.99
2020/02/15 14:24 EST    3.62   3.73   10  123   16  26.4  40.6 1033.6 -9.9 -9.999 -99.9 -99.99 -9.99
2020/02/15 14:30 EST    3.52   3.62   10  144   14  26.4  40.6 1033.7 -9.9 -9.999 -99.9 -99.99 -9.99
2020/02/15 14:36 EST    3.42   3.54    9  148   15  26.6  40.6 1033.4 -9.9 -9.999 -99.9 -99.99 -9.99
2020/02/15 14:42 EST    3.31   3.45   10  146   16  27.3  40.6 1033.2 -9.9 -9.999 -99.9 -99.99 -9.99
2020/02/15 14:48 EST    3.20   3.35   12  145   14  27.1  40.6 1033.2 -9.9 -9.999 -99.9 -99.99 -9.99
2020/02/15 14:54 EST    3.09   3.24   15  165   17  27.0  40.6 1033.0 -9.9 -9.999 -99.9 -99.99 -9.99
2020/02/15 15:00 EST    2.98   3.12   13  152   16  27.1  40.6 1033.0 -9.9 -9.999 -99.9 -99.99 -9.99
2020/02/15 15:06 EST    2.87   3.04   15  162   18  27.5  40.6 1032.9 -9.9 -9.999 -99.9 -99.99 -9.99
2020/02/15 15:12 EST    2.75   2.90   15  156   18  27.7  40.6 1032.9 -9.9 -9.999 -99.9 -99.99 -9.99
2020/02/15 15:18 EST    2.64   2.78   16  165   20  27.7  40.6 1032.9 -9.9 -9.999 -99.9 -99.99 -9.99
2020/02/15 15:24 EST    2.53   2.72   15  172   20  28.0  40.6 1033.0 -9.9 -9.999 -99.9 -99.99 -9.99
2020/02/15 15:30 EST    2.41   2.61   11  153   17  28.2  40.6 1033.1 -9.9 -9.999 -99.9 -99.99 -9.99
2020/02/15 15:36 EST    2.30   2.52   13  165   16  28.2  40.6 1033.1 -9.9 -9.999 -99.9 -99.99 -9.99
2020/02/15 15:42 EST    2.19   2.44   11  162   16  28.2  40.6 1033.0 -9.9 -9.999 -99.9 -99.99 -9.99
2020/02/15 15:48 EST    2.09   2.35   13  162   15  28.2  40.6 1033.0 -9.9 -9.999 -99.9 -99.99 -9.99
2020/02/15 15:54 EST    1.98   2.26   13  170   16  28.6  40.6 1032.9 -9.9 -9.999 -99.9 -99.99 -9.99
2020/02/15 16:00 EST    1.88   2.14   11  161   15  28.6  40.6 1032.9 -9.9 -9.999 -99.9 -99.99 -9.99
2020/02/15 16:06 EST    1.77   2.02   14  168   15  28.6  40.6 1032.8 -9.9 -9.999 -99.9 -99.99 -9.99
2020/02/15 16:12 EST    1.67   1.96   15  166   17  28.8  40.6 1032.5 -9.9 -9.999 -99.9 -99.99 -9.99
2020/02/15 16:18 EST    1.58   1.84   15  161   17  28.9  40.6 1032.2 -9.9 -9.999 -99.9 -99.99 -9.99
2020/02/15 16:24 EST    1.48   1.73   15  168   18  29.7  40.6 1032.2 -9.9 -9.999 -99.9 -99.99 -9.99
2020/02/15 16:30 EST    1.39   1.65   16  179   18  29.3  40.6 1032.2 -9.9 -9.999 -99.9 -99.99 -9.99
2020/02/15 16:36 EST    1.30   1.54   16  179   20  29.3  40.6 1032.2 -9.9 -9.999 -99.9 -99.99 -9.99
2020/02/15 16:42 EST    1.21   1.44   18  174   20  29.1  40.6 1032.1 -9.9 -9.999 -99.9 -99.99 -9.99
2020/02/15 16:48 EST    1.13   1.38   17  176   18  29.1  40.5 1032.0 -9.9 -9.999 -99.9 -99.99 -9.99
2020/02/15 16:54 EST    1.05   1.29   16  170   18  29.1  40.5 1032.0 -9.9 -9.999 -99.9 -99.99 -9.99
2020/02/15 17:00 EST    0.97   1.22   16  173   19  29.5  40.5 1032.0 -9.9 -9.999 -99.9 -99.99 -9.99
2020/02/15 17:06 EST    0.89   1.14   14  170   17  29.7  40.5 1032.1 -9.9 -9.999 -99.9 -99.99 -9.99
2020/02/15 17:12 EST    0.82   1.08   14  180   17  29.5  40.5 1032.2 -9.9 -9.999 -99.9 -99.99 -9.99
2020/02/15 17:18 EST    0.74   1.03   14  188   17  29.7  40.5 1032.1 -9.9 -9.999 -99.9 -99.99 -9.99
2020/02/15 17:24 EST    0.67   0.99   13  192   16  29.5  40.5 1032.1 -9.9 -9.999 -99.9 -99.99 -9.99
2020/02/15 17:30 EST    0.61   0.89   14  182   17  29.7  40.6 1032.1 -9.9 -9.999 -99.9 -99.99 -9.99
2020/02/15 17:36 EST    0.54   0.85   13  191   17  29.7  40.6 1032.0 -9.9 -9.999 -99.9 -99.99 -9.99
2020/02/15 17:42 EST    0.48   0.79   12  181   15  29.5  40.6 1032.0 -9.9 -9.999 -99.9 -99.99 -9.99
2020/02/15 17:48 EST    0.42   0.74   14  188   17  29.7  40.6 1031.8 -9.9 -9.999 -99.9 -99.99 -9.99
2020/02/15 17:54 EST    0.36   0.70   15  188   17  29.7  40.6 1031.8 -9.9 -9.999 -99.9 -99.99 -9.99
2020/02/15 18:00 EST    0.31   0.64   12  186   15  29.7  40.6 1031.8 -9.9 -9.999 -99.9 -99.99 -9.99
2020/02/15 18:06 EST    0.26   0.60   14  188   17  29.5  40.6 1031.8 -9.9 -9.999 -99.9 -99.99 -9.99
2020/02/15 18:12 EST    0.21   0.55   12  193   16  29.5  40.5 1031.9 -9.9 -9.999 -99.9 -99.99 -9.99
2020/02/15 18:18 EST    0.17   0.50   10  199   13  29.5  40.5 1031.9 -9.9 -9.999 -99.9 -99.99 -9.99
2020/02/15 18:24 EST    0.13   0.50   11  200   15  29.8  40.5 1031.9 -9.9 -9.999 -99.9 -99.99 -9.99
2020/02/15 18:30 EST    0.09   0.48   13  200   15  29.5  40.3 1032.0 -9.9 -9.999 -99.9 -99.99 -9.99
2020/02/15 18:36 EST    0.06   0.44   12  201   15  29.8  40.3 1032.1 -9.9 -9.999 -99.9 -99.99 -9.99
2020/02/15 18:42 EST    0.04   0.41   13  201   15  29.5  40.3 1031.8 -9.9 -9.999 -99.9 -99.99 -9.99
2020/02/15 18:48 EST    0.02   0.39   13  200   16  29.5  40.3 1031.7 -9.9 -9.999 -99.9 -99.99 -9.99
2020/02/15 18:54 EST   -0.00   0.37   13  202   16  29.7  40.1 1031.7 -9.9 -9.999 -99.9 -99.99 -9.99
2020/02/15 19:00 EST   -0.01   0.35   11  199   15  29.7  40.3 1031.5 -9.9 -9.999 -99.9 -99.99 -9.99
2020/02/15 19:06 EST   -0.02   0.35   13  204   15  29.7  40.3 1031.5 -9.9 -9.999 -99.9 -99.99 -9.99
2020/02/15 19:12 EST   -0.02   0.35   13  191   16  29.5  40.3 1031.4 -9.9 -9.999 -99.9 -99.99 -9.99
2020/02/15 19:18 EST   -0.02   0.34   13  193   18  29.5  40.3 1031.2 -9.9 -9.999 -99.9 -99.99 -9.99
2020/02/15 19:24 EST   -0.00   0.37   13  192   17  29.5  40.3 1031.2 -9.9 -9.999 -99.9 -99.99 -9.99
2020/02/15 19:30 EST    0.02   0.37   13  190   16  29.3  40.1 1031.1 -9.9 -9.999 -99.9 -99.99 -9.99
2020/02/15 19:36 EST    0.04   0.40   13  187   16  29.5  40.1 1031.1 -9.9 -9.999 -99.9 -99.99 -9.99
2020/02/15 19:42 EST    0.07   0.45   15  184   17  29.3  40.1 1030.9 -9.9 -9.999 -99.9 -99.99 -9.99
2020/02/15 19:48 EST    0.11   0.49   14  184   17  29.5  40.1 1030.8 -9.9 -9.999 -99.9 -99.99 -9.99
2020/02/15 19:54 EST    0.15   0.54   14  197   17  28.9  40.1 1030.7 -9.9 -9.999 -99.9 -99.99 -9.99
2020/02/15 20:00 EST    0.20   0.57   13  194   17  29.3  40.1 1030.7 -9.9 -9.999 -99.9 -99.99 -9.99
2020/02/15 20:06 EST    0.25   0.66   15  190   17  28.9  40.1 1030.7 -9.9 -9.999 -99.9 -99.99 -9.99
2020/02/15 20:12 EST    0.32   0.73   13  197   17  29.3  40.1 1030.5 -9.9 -9.999 -99.9 -99.99 -9.99
2020/02/15 20:18 EST    0.38   0.77   13  204   17  28.8  39.9 1030.4 -9.9 -9.999 -99.9 -99.99 -9.99
2020/02/15 20:24 EST    0.46   0.85   12  194   16  29.3  39.9 1030.3 -9.9 -9.999 -99.9 -99.99 -9.99
2020/02/15 20:30 EST    0.54   0.91   13  200   16  28.9  39.9 1030.3 -9.9 -9.999 -99.9 -99.99 -9.99
2020/02/15 20:36 EST    0.62   1.01   14  201   17  28.9  39.9 1030.3 -9.9 -9.999 -99.9 -99.99 -9.99
2020/02/15 20:42 EST    0.71   1.01   13  197   18  28.9  39.9 1030.4 -9.9 -9.999 -99.9 -99.99 -9.99
2020/02/15 20:48 EST    0.80   1.14   13  202   16  28.6  39.9 1030.1 -9.9 -9.999 -99.9 -99.99 -9.99
2020/02/15 20:54 EST    0.90   1.21   13  204   18  28.8  39.9 1030.1 -9.9 -9.999 -99.9 -99.99 -9.99
2020/02/15 21:00 EST    1.00   1.29   12  202   17  28.6  39.9 1030.0 -9.9 -9.999 -99.9 -99.99 -9.99
2020/02/15 21:06 EST    1.11   1.37   13  201   16  28.4  39.9 1030.0 -9.9 -9.999 -99.9 -99.99 -9.99
2020/02/15 21:12 EST    1.21   1.41   12  201   15  28.8  39.9 1029.8 -9.9 -9.999 -99.9 -99.99 -9.99
2020/02/15 21:18 EST    1.33   1.55   14  201   17  28.2  39.9 1029.8 -9.9 -9.999 -99.9 -99.99 -9.99
2020/02/15 21:24 EST    1.44   1.63   16  207   17  28.0  39.9 1029.7 -9.9 -9.999 -99.9 -99.99 -9.99
2020/02/15 21:30 EST    1.55   1.71   15  208   18  28.0  39.7 1029.7 -9.9 -9.999 -99.9 -99.99 -9.99
2020/02/15 21:36 EST    1.67   1.80   11  203   16  28.6  39.7 1029.7 -9.9 -9.999 -99.9 -99.99 -9.99
2020/02/15 21:42 EST    1.79   1.93   13  210   15  28.2  39.7 1029.6 -9.9 -9.999 -99.9 -99.99 -9.99
2020/02/15 21:48 EST    1.91   2.03   14  208   16  28.0  39.7 1029.5 -9.9 -9.999 -99.9 -99.99 -9.99
2020/02/15 21:54 EST    2.03   2.14   12  211   15  28.2  39.7 1029.3 -9.9 -9.999 -99.9 -99.99 -9.99
2020/02/15 22:00 EST    2.15   2.27   11  208   15  28.6  39.7 1029.3 -9.9 -9.999 -99.9 -99.99 -9.99
2020/02/15 22:06 EST    2.27   2.38   11  214   14  28.4  39.7 1029.3 -9.9 -9.999 -99.9 -99.99 -9.99
2020/02/15 22:12 EST    2.39   2.47   12  214   14  28.2  39.7 1029.1 -9.9 -9.999 -99.9 -99.99 -9.99
2020/02/15 22:18 EST    2.51   2.63   12  212   14  28.2  39.7 1029.1 -9.9 -9.999 -99.9 -99.99 -9.99
2020/02/15 22:24 EST    2.63   2.73   11  213   15  28.0  39.7 1029.2 -9.9 -9.999 -99.9 -99.99 -9.99
2020/02/15 22:30 EST    2.75   2.84   11  212   15  28.0  39.6 1029.0 -9.9 -9.999 -99.9 -99.99 -9.99
2020/02/15 22:36 EST    2.87   2.96   12  212   14  28.0  39.7 1029.0 -9.9 -9.999 -99.9 -99.99 -9.99
2020/02/15 22:42 EST    2.99   3.05   11  214   14  28.4  39.7 1028.9 -9.9 -9.999 -99.9 -99.99 -9.99
2020/02/15 22:48 EST    3.10   3.18   11  214   14  28.0  39.7 1028.9 -9.9 -9.999 -99.9 -99.99 -9.99
2020/02/15 22:54 EST    3.22   3.27   11  215   13  28.2  39.7 1029.1 -9.9 -9.999 -99.9 -99.99 -9.99
2020/02/15 23:00 EST    3.33   3.40   11  213   13  28.2  39.6 1029.1 -9.9 -9.999 -99.9 -99.99 -9.99
2020/02/15 23:06 EST    3.44   3.49   12  218   13  28.0  39.6 1029.1 -9.9 -9.999 -99.9 -99.99 -9.99
2020/02/15 23:12 EST    3.55   3.62   11  215   13  28.2  39.6 1029.0 -9.9 -9.999 -99.9 -99.99 -9.99
2020/02/15 23:18 EST    3.65   3.69    8  195   12  28.4  39.6 1028.8 -9.9 -9.999 -99.9 -99.99 -9.99
2020/02/15 23:24 EST    3.76   3.83   11  197   15  28.2  39.6 1028.6 -9.9 -9.999 -99.9 -99.99 -9.99
2020/02/15 23:30 EST    3.86   3.92   13  195   14  28.2  39.6 1028.5 -9.9 -9.999 -99.9 -99.99 -9.99
2020/02/15 23:36 EST    3.96   4.02   12  196   15  28.4  39.6 1028.4 -9.9 -9.999 -99.9 -99.99 -9.99
2020/02/15 23:42 EST    4.06   4.11   12  198   15  28.4  39.6 1028.4 -9.9 -9.999 -99.9 -99.99 -9.99
2020/02/15 23:48 EST    4.15   4.19   12  198   15  28.8  39.6 1028.3 -9.9 -9.999 -99.9 -99.99 -9.99
2020/02/15 23:54 EST    4.24   4.27   12  204   16  28.8  39.6 1028.3 -9.9 -9.999 -99.9 -99.99 -9.99
2020/02/16 00:00 EST    4.32   4.36   12  204   16  28.6  39.6 1028.2 -9.9 -9.999 -99.9 -99.99 -9.99
2020/02/16 00:06 EST    4.41   4.43   11  207   14  28.8  39.6 1028.2 -9.9 -9.999 -99.9 -99.99 -9.99
2020/02/16 00:12 EST    4.48   4.52   11  206   13  28.8  39.4 1028.1 -9.9 -9.999 -99.9 -99.99 -9.99
2020/02/16 00:18 EST    4.56   4.58   11  210   15  28.9  39.6 1028.1 -9.9 -9.999 -99.9 -99.99 -9.99
2020/02/16 00:24 EST    4.62   4.69   11  204   15  29.1  39.4 1027.9 -9.9 -9.999 -99.9 -99.99 -9.99
2020/02/16 00:30 EST    4.69   4.72   12  214   16  29.3  39.4 1027.9 -9.9 -9.999 -99.9 -99.99 -9.99
2020/02/16 00:36 EST    4.75   4.82   13  220   15  29.1  39.4 1027.8 -9.9 -9.999 -99.9 -99.99 -9.99
2020/02/16 00:42 EST    4.80   4.88   13  214   15  29.3  39.4 1027.7 -9.9 -9.999 -99.9 -99.99 -9.99
2020/02/16 00:48 EST    4.85   4.94   13  227   15  29.1  39.4 1027.7 -9.9 -9.999 -99.9 -99.99 -9.99
2020/02/16 00:54 EST    4.89   4.97   12  227   16  29.3  39.4 1027.6 -9.9 -9.999 -99.9 -99.99 -9.99
2020/02/16 01:00 EST    4.92   5.05   14  219   17  29.5  39.4 1027.5 -9.9 -9.999 -99.9 -99.99 -9.99
2020/02/16 01:06 EST    4.95   5.08   12  218   15  29.7  39.4 1027.5 -9.9 -9.999 -99.9 -99.99 -9.99
2020/02/16 01:12 EST    4.97   5.08   14  215   15  29.5  39.2 1027.3 -9.9 -9.999 -99.9 -99.99 -9.99
2020/02/16 01:18 EST    4.98   5.13   15  219   17  29.7  39.4 1027.3 -9.9 -9.999 -99.9 -99.99 -9.99
2020/02/16 01:24 EST    4.99   5.14   14  216   16  29.5  39.4 1027.2 -9.9 -9.999 -99.9 -99.99 -9.99
2020/02/16 01:30 EST    4.98   5.13   12  220   17  29.8  39.4 1027.2 -9.9 -9.999 -99.9 -99.99 -9.99
2020/02/16 01:36 EST    4.98   5.13   15  215   17  29.8  39.4 1027.2 -9.9 -9.999 -99.9 -99.99 -9.99
2020/02/16 01:42 EST    4.96   5.12   15  218   17  30.2  39.4 1027.1 -9.9 -9.999 -99.9 -99.99 -9.99
2020/02/16 01:48 EST    4.94   5.08   15  211   18  29.8  39.4 1026.9 -9.9 -9.999 -99.9 -99.99 -9.99
2020/02/16 01:54 EST    4.91   5.03   15  213   17  30.0  39.4 1026.9 -9.9 -9.999 -99.9 -99.99 -9.99
2020/02/16 02:00 EST    4.87   5.00   15  214   19  30.4  39.4 1026.6 -9.9 -9.999 -99.9 -99.99 -9.99
2020/02/16 02:06 EST    4.82   4.93   15  212   19  30.4  39.2 1026.6 -9.9 -9.999 -99.9 -99.99 -9.99
2020/02/16 02:12 EST    4.77   4.87   15  211   18  30.6  39.2 1026.4 -9.9 -9.999 -99.9 -99.99 -9.99
2020/02/16 02:18 EST    4.71   4.77   16  210   18  30.6  39.2 1026.2 -9.9 -9.999 -99.9 -99.99 -9.99
2020/02/16 02:24 EST    4.65   4.73   15  213   21  30.7  39.4 1026.1 -9.9 -9.999 -99.9 -99.99 -9.99
2020/02/16 02:30 EST    4.58   4.64   17  212   20  30.7  39.4 1025.9 -9.9 -9.999 -99.9 -99.99 -9.99
2020/02/16 02:36 EST    4.50   4.53   17  219   20  31.1  39.4 1025.8 -9.9 -9.999 -99.9 -99.99 -9.99
2020/02/16 02:42 EST    4.42   4.44   17  213   20  31.1  39.4 1025.9 -9.9 -9.999 -99.9 -99.99 -9.99
2020/02/16 02:48 EST    4.34   4.37   18  217   20  31.1  39.2 1025.7 -9.9 -9.999 -99.9 -99.99 -9.99
2020/02/16 02:54 EST    4.25   4.24   16  212   19  31.1  39.2 1025.7 -9.9 -9.999 -99.9 -99.99 -9.99
2020/02/16 03:00 EST    4.15   4.14   17  219   20  30.9  39.2 1025.6 -9.9 -9.999 -99.9 -99.99 -9.99
2020/02/16 03:06 EST    4.06   4.06   17  213   20  31.1  39.0 1025.5 -9.9 -9.999 -99.9 -99.99 -9.99
2020/02/16 03:12 EST    3.96   3.93   17  215   20  31.3  39.0 1025.4 -9.9 -9.999 -99.9 -99.99 -9.99
2020/02/16 03:18 EST    3.85   3.79   16  214   20  31.1  39.0 1025.3 -9.9 -9.999 -99.9 -99.99 -9.99
2020/02/16 03:24 EST    3.75   3.72   16  214   19  31.1  39.0 1025.1 -9.9 -9.999 -99.9 -99.99 -9.99
2020/02/16 03:30 EST    3.64   3.56   15  215   17  31.3  39.0 1025.2 -9.9 -9.999 -99.9 -99.99 -9.99
2020/02/16 03:36 EST    3.53   3.46   15  219   18  31.5  39.0 1025.1 -9.9 -9.999 -99.9 -99.99 -9.99
2020/02/16 03:42 EST    3.43   3.30   14  216   17  31.5  39.0 1025.1 -9.9 -9.999 -99.9 -99.99 -9.99
2020/02/16 03:48 EST    3.32   3.20   14  218   18  31.5  38.8 1025.1 -9.9 -9.999 -99.9 -99.99 -9.99
2020/02/16 03:54 EST    3.21   3.07   15  217   18  31.6  38.8 1025.0 -9.9 -9.999 -99.9 -99.99 -9.99
2020/02/16 04:00 EST    3.10   2.95   16  217   18  31.6  38.8 1024.9 -9.9 -9.999 -99.9 -99.99 -9.99
2020/02/16 04:06 EST    3.00   2.83   14  218   17  31.6  38.8 1024.9 -9.9 -9.999 -99.9 -99.99 -9.99
2020/02/16 04:12 EST    2.89   2.70   15  217   18  31.6  38.8 1024.9 -9.9 -9.999 -99.9 -99.99 -9.99
2020/02/16 04:18 EST    2.78   2.60   13  222   16  32.0  38.8 1024.8 -9.9 -9.999 -99.9 -99.99 -9.99
2020/02/16 04:24 EST    2.68   2.46   15  229   17  31.5  38.8 1024.8 -9.9 -9.999 -99.9 -99.99 -9.99
2020/02/16 04:30 EST    2.58   2.35   14  229   18  31.5  38.8 1024.8 -9.9 -9.999 -99.9 -99.99 -9.99
2020/02/16 04:36 EST    2.47   2.25   14  228   16  31.8  38.8 1024.8 -9.9 -9.999 -99.9 -99.99 -9.99
2020/02/16 04:42 EST    2.37   2.15   14  223   19  31.6  38.8 1024.7 -9.9 -9.999 -99.9 -99.99 -9.99
2020/02/16 04:48 EST    2.28   2.02   15  224   17  31.8  38.8 1024.6 -9.9 -9.999 -99.9 -99.99 -9.99
2020/02/16 04:54 EST    2.18   1.98   16  226   18  32.0  38.8 1024.6 -9.9 -9.999 -99.9 -99.99 -9.99
2020/02/16 05:00 EST    2.08   1.87   14  223   18  32.2  38.8 1024.6 -9.9 -9.999 -99.9 -99.99 -9.99
2020/02/16 05:06 EST    1.99   1.80   15  222   18  32.2  38.8 1024.5 -9.9 -9.999 -99.9 -99.99 -9.99
2020/02/16 05:12 EST    1.90   1.72   16  223   19  32.0  38.8 1024.5 -9.9 -9.999 -99.9 -99.99 -9.99
2020/02/16 05:18 EST    1.81   1.64   15  226   19  32.4  38.8 1024.5 -9.9 -9.999 -99.9 -99.99 -9.99
2020/02/16 05:24 EST    1.72   1.55   15  227   18  32.0  38.8 1024.5 -9.9 -9.999 -99.9 -99.99 -9.99
2020/02/16 05:30 EST    1.63   1.51   14  225   17  32.0  38.8 1024.7 -9.9 -9.999 -99.9 -99.99 -9.99
2020/02/16 05:36 EST    1.55   1.41   13  229   15  32.4  38.8 1024.7 -9.9 -9.999 -99.9 -99.99 -9.99
2020/02/16 05:42 EST    1.46   1.33   14  227   17  32.0  38.8 1024.6 -9.9 -9.999 -99.9 -99.99 -9.99
2020/02/16 05:48 EST    1.38   1.24   12  227   15  32.4  38.8 1024.6 -9.9 -9.999 -99.9 -99.99 -9.99
2020/02/16 05:54 EST    1.30   1.19   13  228   16  32.2  38.8 1024.6 -9.9 -9.999 -99.9 -99.99 -9.99
2020/02/16 06:00 EST    1.22   1.07   14  223   16  32.0  38.8 1024.5 -9.9 -9.999 -99.9 -99.99 -9.99
2020/02/16 06:06 EST    1.14   1.00   13  227   17  32.0  38.8 1024.5 -9.9 -9.999 -99.9 -99.99 -9.99
2020/02/16 06:12 EST    1.06   0.93   14  226   17  31.8  38.8 1024.4 -9.9 -9.999 -99.9 -99.99 -9.99
2020/02/16 06:18 EST    0.99   0.84   15  224   17  31.8  38.8 1024.4 -9.9 -9.999 -99.9 -99.99 -9.99
2020/02/16 06:24 EST    0.91   0.76   14  229   17  32.0  38.7 1024.5 -9.9 -9.999 -99.9 -99.99 -9.99
2020/02/16 06:30 EST    0.84   0.72   12  228   14  32.0  38.7 1024.4 -9.9 -9.999 -99.9 -99.99 -9.99
2020/02/16 06:36 EST    0.78   0.67   12  236   15  31.8  38.7 1024.4 -9.9 -9.999 -99.9 -99.99 -9.99
2020/02/16 06:42 EST    0.71   0.57   13  224   15  31.5  38.7 1024.4 -9.9 -9.999 -99.9 -99.99 -9.99
2020/02/16 06:48 EST    0.65   0.52   11  220   14  31.8  38.7 1024.4 -9.9 -9.999 -99.9 -99.99 -9.99
2020/02/16 06:54 EST    0.59   0.49   12  224   14  31.6  38.7 1024.3 -9.9 -9.999 -99.9 -99.99 -9.99
2020/02/16 07:00 EST    0.54   0.47   11  226   14  31.6  38.7 1024.3 -9.9 -9.999 -99.9 -99.99 -9.99
2020/02/16 07:06 EST    0.49   0.39   12  234   13  31.8  38.7 1024.3 -9.9 -9.999 -99.9 -99.99 -9.99
2020/02/16 07:12 EST    0.44   0.35   11  230   14  31.8  38.7 1024.3 -9.9 -9.999 -99.9 -99.99 -9.99
2020/02/16 07:18 EST    0.40   0.32   12  229   13  31.6  38.7 1024.3 -9.9 -9.999 -99.9 -99.99 -9.99
2020/02/16 07:24 EST    0.36   0.30   12  228   15  31.5  38.7 1024.2 -9.9 -9.999 -99.9 -99.99 -9.99
2020/02/16 07:30 EST    0.33   0.28   12  229   14  31.5  38.7 1024.2 -9.9 -9.999 -99.9 -99.99 -9.99
2020/02/16 07:36 EST    0.30   0.27   13  228   15  31.5  38.7 1024.2 -9.9 -9.999 -99.9 -99.99 -9.99
2020/02/16 07:42 EST    0.28   0.23   12  224   14  31.6  38.7 1024.3 -9.9 -9.999 -99.9 -99.99 -9.99
2020/02/16 07:48 EST    0.26   0.22   12  225   14  31.8  38.7 1024.2 -9.9 -9.999 -99.9 -99.99 -9.99
2020/02/16 07:54 EST    0.25   0.23   13  220   15  31.6  38.5 1024.1 -9.9 -9.999 -99.9 -99.99 -9.99
2020/02/16 08:00 EST    0.25   0.23   11  225   15  32.0  38.7 1024.1 -9.9 -9.999 -99.9 -99.99 -9.99
2020/02/16 08:06 EST    0.25   0.24   11  224   14  32.0  38.7 1024.2 -9.9 -9.999 -99.9 -99.99 -9.99
2020/02/16 08:12 EST    0.26   0.25   11  222   15  31.8  38.5 1024.2 -9.9 -9.999 -99.9 -99.99 -9.99
2020/02/16 08:18 EST    0.27   0.28   12  229   14  32.2  38.5 1024.3 -9.9 -9.999 -99.9 -99.99 -9.99
2020/02/16 08:24 EST    0.29   0.29   11  231   14  32.2  38.5 1024.4 -9.9 -9.999 -99.9 -99.99 -9.99
2020/02/16 08:30 EST    0.32   0.35   11  230   13  32.5  38.5 1024.2 -9.9 -9.999 -99.9 -99.99 -9.99
2020/02/16 08:36 EST    0.36   0.39   10  232   14  32.5  38.5 1024.2 -9.9 -9.999 -99.9 -99.99 -9.99
2020/02/16 08:42 EST    0.40   0.43   11  235   14  32.5  38.5 1024.2 -9.9 -9.999 -99.9 -99.99 -9.99
2020/02/16 08:48 EST    0.44   0.47   10  226   12  32.7  38.5 1024.1 -9.9 -9.999 -99.9 -99.99 -9.99
2020/02/16 08:54 EST    0.49   0.52   10  234   12  33.1  38.5 1024.0 -9.9 -9.999 -99.9 -99.99 -9.99
2020/02/16 09:00 EST    0.55   0.58   10  229   12  33.3  38.5 1023.8 -9.9 -9.999 -99.9 -99.99 -9.99
2020/02/16 09:06 EST    0.61   0.63   10  231   12  33.3  38.5 1023.8 -9.9 -9.999 -99.9 -99.99 -9.99
2020/02/16 09:12 EST    0.68   0.68    8  236   11  33.6  38.5 1023.9 -9.9 -9.999 -99.9 -99.99 -9.99
2020/02/16 09:18 EST    0.75   0.75    8  238   11  33.8  38.5 1023.8 -9.9 -9.999 -99.9 -99.99 -9.99
2020/02/16 09:24 EST    0.83   0.81   10  235   11  34.0  38.5 1023.7 -9.9 -9.999 -99.9 -99.99 -9.99
2020/02/16 09:30 EST    0.91   0.88   11  242   13  34.0  38.5 1023.6 -9.9 -9.999 -99.9 -99.99 -9.99
2020/02/16 09:36 EST    0.99   0.96   10  245   13  34.2  38.5 1023.6 -9.9 -9.999 -99.9 -99.99 -9.99
2020/02/16 09:42 EST    1.08   1.03   10  253   11  34.3  38.5 1023.6 -9.9 -9.999 -99.9 -99.99 -9.99
2020/02/16 09:48 EST    1.17   1.13   10  246   11  34.3  38.5 1023.4 -9.9 -9.999 -99.9 -99.99 -9.99
2020/02/16 09:54 EST    1.26   1.23    9  240   11  34.7  38.5 1023.4 -9.9 -9.999 -99.9 -99.99 -9.99
2020/02/16 10:00 EST    1.36   1.30   12  247   13  34.9  38.5 1023.1 -9.9 -9.999 -99.9 -99.99 -9.99
2020/02/16 10:06 EST    1.45   1.39   12  248   13  34.7  38.5 1023.1 -9.9 -9.999 -99.9 -99.99 -9.99
2020/02/16 10:12 EST    1.55   1.50   10  244   12  34.9  38.5 1022.9 -9.9 -9.999 -99.9 -99.99 -9.99
2020/02/16 10:18 EST    1.65   1.61    9  247   11  35.2  38.5 1022.8 -9.9 -9.999 -99.9 -99.99 -9.99
2020/02/16 10:24 EST    1.75   1.69   10  237   11  35.4  38.5 1022.8 -9.9 -9.999 -99.9 -99.99 -9.99
2020/02/16 10:30 EST    1.85   1.78    9  249   11  35.6  38.5 1022.7 -9.9 -9.999 -99.9 -99.99 -9.99
2020/02/16 10:36 EST    1.95   1.86    9  247   11  35.8  38.5 1022.6 -9.9 -9.999 -99.9 -99.99 -9.99
2020/02/16 10:42 EST    2.05   1.97   10  246   13  36.1  38.5 1022.5 -9.9 -9.999 -99.9 -99.99 -9.99
2020/02/16 10:48 EST    2.15   2.05   10  240   12  36.3  38.5 1022.5 -9.9 -9.999 -99.9 -99.99 -9.99
2020/02/16 10:54 EST    2.26   2.13    8  232   10  36.5  38.5 1022.4 -9.9 -9.999 -99.9 -99.99 -9.99
2020/02/16 11:00 EST    2.36   2.20    7  238    9  36.9  38.5 1022.3 -9.9 -9.999 -99.9 -99.99 -9.99
2020/02/16 11:06 EST    2.46   2.29    8  259   10  37.2  38.5 1022.2 -9.9 -9.999 -99.9 -99.99 -9.99
2020/02/16 11:12 EST    2.55   2.40    9  266   12  37.6  38.5 1022.2 -9.9 -9.999 -99.9 -99.99 -9.99
2020/02/16 11:18 EST    2.65   2.46   10  276   11  37.8  38.5 1022.2 -9.9 -9.999 -99.9 -99.99 -9.99
2020/02/16 11:24 EST    2.75   2.56   10  282   12  37.8  38.5 1022.0 -9.9 -9.999 -99.9 -99.99 -9.99
2020/02/16 11:30 EST    2.84   2.63   10  286   11  37.6  38.5 1021.9 -9.9 -9.999 -99.9 -99.99 -9.99
2020/02/16 11:36 EST    2.94   2.73   10  283   13  37.6  38.5 1021.8 -9.9 -9.999 -99.9 -99.99 -9.99
2020/02/16 11:42 EST    3.03   2.82   12  279   13  37.6  38.5 1021.8 -9.9 -9.999 -99.9 -99.99 -9.99
2020/02/16 11:48 EST    3.12   2.88   11  277   13  37.6  38.5 1021.7 -9.9 -9.999 -99.9 -99.99 -9.99
2020/02/16 11:54 EST    3.21   2.96   11  274   12  37.9  38.5 1021.7 -9.9 -9.999 -99.9 -99.99 -9.99
2020/02/16 12:00 EST    3.29   3.04   11  275   12  38.3  38.5 1021.6 -9.9 -9.999 -99.9 -99.99 -9.99
2020/02/16 12:06 EST    3.37   3.11   10  282   12  38.7  38.5 1021.4 -9.9 -9.999 -99.9 -99.99 -9.99
2020/02/16 12:12 EST    3.45   3.18    8  276   11  38.7  38.7 1021.1 -9.9 -9.999 -99.9 -99.99 -9.99
2020/02/16 12:18 EST    3.53   3.27    8  284    9  38.7  38.8 1021.0 -9.9 -9.999 -99.9 -99.99 -9.99
2020/02/16 12:24 EST    3.61   3.32    7  272    9  39.2  38.7 1020.9 -9.9 -9.999 -99.9 -99.99 -9.99
2020/02/16 12:30 EST    3.68   3.38    9  296   11  38.5  38.7 1021.0 -9.9 -9.999 -99.9 -99.99 -9.99
2020/02/16 12:36 EST    3.74   3.44    6  291   10  38.7  38.7 1020.7 -9.9 -9.999 -99.9 -99.99 -9.99
2020/02/16 12:42 EST    3.81   3.50   10  298   11  38.5  38.7 1020.8 -9.9 -9.999 -99.9 -99.99 -9.99
2020/02/16 12:48 EST    3.86   3.54   11  299   12  38.5  38.7 1020.7 -9.9 -9.999 -99.9 -99.99 -9.99
2020/02/16 12:54 EST    3.92   3.59   10  301   11  38.5  38.7 1020.5 -9.9 -9.999 -99.9 -99.99 -9.99
2020/02/16 13:00 EST    3.97   3.62   10  304   12  38.7  38.8 1020.4 -9.9 -9.999 -99.9 -99.99 -9.99
2020/02/16 13:06 EST    4.01   3.69   10  301   11  38.8  39.0 1020.4 -9.9 -9.999 -99.9 -99.99 -9.99
2020/02/16 13:12 EST    4.05   3.73   10  301   11  39.0  39.0 1020.3 -9.9 -9.999 -99.9 -99.99 -9.99
2020/02/16 13:18 EST    4.09   3.75   10  303   11  39.0  39.0 1020.2 -9.9 -9.999 -99.9 -99.99 -9.99
2020/02/16 13:24 EST    4.11   3.79    9  302   11  39.0  39.0 1020.0 -9.9 -9.999 -99.9 -99.99 -9.99
2020/02/16 13:30 EST    4.14   3.84    9  302   10  39.2  39.0 1019.9 -9.9 -9.999 -99.9 -99.99 -9.99
2020/02/16 13:36 EST    4.15   3.88    8  300    9  39.2  39.0 1019.8 -9.9 -9.999 -99.9 -99.99 -9.99
2020/02/16 13:42 EST    4.16   3.89    8  304    9  39.0  39.0 1019.9 -9.9 -9.999 -99.9 -99.99 -9.99
2020/02/16 13:48 EST    4.16   3.92    6  308    9  39.4  39.2 1019.8 -9.9 -9.999 -99.9 -99.99 -9.99
2020/02/16 13:54 EST    4.16   3.93    6  303    7  39.6  39.2 1019.8 -9.9 -9.999 -99.9 -99.99 -9.99
2020/02/16 14:00 EST    4.15   3.93    7  297    7  39.7  39.2 1019.9 -9.9 -9.999 -99.9 -99.99 -9.99
2020/02/16 14:06 EST    4.13   3.93    5  302    7  39.9  39.2 1019.9 -9.9 -9.999 -99.9 -99.99 -9.99
2020/02/16 14:12 EST    4.11   3.93    4  299    6  39.9  39.2 1019.9 -9.9 -9.999 -99.9 -99.99 -9.99
2020/02/16 14:18 EST    4.08   3.92    5  314    7  40.5  39.2 1019.8 -9.9 -9.999 -99.9 -99.99 -9.99
2020/02/16 14:24 EST    4.04   3.89    4  321    6  40.8  39.2 1019.6 -9.9 -9.999 -99.9 -99.99 -9.99
2020/02/16 14:30 EST    4.00   3.87    4  331    6  41.4  39.2 1019.4 -9.9 -9.999 -99.9 -99.99 -9.99
2020/02/16 14:36 EST    3.95   3.84    4  322    6  41.5  39.2 1019.6 -9.9 -9.999 -99.9 -99.99 -9.99
2020/02/16 14:42 EST    3.90   3.80    3  308    5  41.4  39.2 1019.7 -9.9 -9.999 -99.9 -99.99 -9.99
2020/02/16 14:48 EST    3.84   3.75    3  323    4  41.5  39.2 1019.6 -9.9 -9.999 -99.9 -99.99 -9.99
2020/02/16 14:54 EST    3.78   3.68    4  333    6  41.9  39.2 1019.6 -9.9 -9.999 -99.9 -99.99 -9.99
2020/02/16 15:00 EST    3.71   3.63    4  336    6  42.1  39.2 1019.5 -9.9 -9.999 -99.9 -99.99 -9.99
2020/02/16 15:06 EST    3.63   3.55    2  338    6  42.3  39.2 1019.4 -9.9 -9.999 -99.9 -99.99 -9.99
2020/02/16 15:12 EST    3.56   3.45    1  313    3  42.6  39.2 1019.3 -9.9 -9.999 -99.9 -99.99 -9.99
2020/02/16 15:18 EST    3.47   3.40    2  345    4  43.0  39.2 1019.2 -9.9 -9.999 -99.9 -99.99 -9.99
2020/02/16 15:24 EST    3.39   3.30    1  312    3  44.1  39.2 1019.0 -9.9 -9.999 -99.9 -99.99 -9.99
2020/02/16 15:30 EST    3.30   3.21    0  177    2  44.1  39.2 1019.2 -9.9 -9.999 -99.9 -99.99 -9.99
2020/02/16 15:36 EST    3.21   3.13    2   29    4  43.2  39.2 1019.1 -9.9 -9.999 -99.9 -99.99 -9.99
2020/02/16 15:42 EST    3.12   3.03    3  356    5  43.0  39.2 1019.1 -9.9 -9.999 -99.9 -99.99 -9.99
2020/02/16 15:48 EST    3.03   2.95    3    8    6  43.2  39.2 1019.4 -9.9 -9.999 -99.9 -99.99 -9.99
2020/02/16 15:54 EST    2.94   2.88    3   13    6  43.0  39.2 1019.5 -9.9 -9.999 -99.9 -99.99 -9.99
2020/02/16 16:00 EST    2.85   2.79    3   27    5  43.0  39.2 1019.6 -9.9 -9.999 -99.9 -99.99 -9.99
2020/02/16 16:06 EST    2.75   2.69    4   34    5  43.0  39.2 1019.6 -9.9 -9.999 -99.9 -99.99 -9.99
2020/02/16 16:12 EST    2.66   2.59    3   48    5  43.0  39.2 1019.6 -9.9 -9.999 -99.9 -99.99 -9.99
2020/02/16 16:18 EST    2.56   2.50    4   51    5  42.8  39.2 1019.5 -9.9 -9.999 -99.9 -99.99 -9.99
2020/02/16 16:24 EST    2.47   2.42    4   52    6  42.4  39.2 1019.5 -9.9 -9.999 -99.9 -99.99 -9.99
2020/02/16 16:30 EST    2.38   2.35    4   68    5  42.3  39.2 1019.5 -9.9 -9.999 -99.9 -99.99 -9.99
2020/02/16 16:36 EST    2.29   2.24    4   91    5  41.9  39.2 1019.6 -9.9 -9.999 -99.9 -99.99 -9.99
2020/02/16 16:42 EST    2.20   2.16    4   98    5  41.7  39.2 1019.6 -9.9 -9.999 -99.9 -99.99 -9.99
2020/02/16 16:48 EST    2.12   2.07    5  102    6  41.2  39.2 1019.5 -9.9 -9.999 -99.9 -99.99 -9.99
2020/02/16 16:54 EST    2.03   2.00    4  122    5  41.0  39.2 1019.5 -9.9 -9.999 -99.9 -99.99 -9.99
2020/02/16 17:00 EST    1.95   1.92    3  118    6  41.0  39.2 1019.5 -9.9 -9.999 -99.9 -99.99 -9.99
2020/02/16 17:06 EST    1.86   1.87    4  108    5  40.6  39.2 1019.3 -9.9 -9.999 -99.9 -99.99 -9.99
2020/02/16 17:12 EST    1.78   1.82    4  120    5  40.6  39.2 1019.3 -9.9 -9.999 -99.9 -99.99 -9.99
2020/02/16 17:18 EST    1.70   1.65    6  131    7  41.0  39.4 1019.2 -9.9 -9.999 -99.9 -99.99 -9.99
2020/02/16 17:24 EST    1.63   1.62    5  133    7  41.0  39.4 1019.2 -9.9 -9.999 -99.9 -99.99 -9.99
2020/02/16 17:30 EST    1.55   1.60    6  138    8  40.8  39.4 1019.3 -9.9 -9.999 -99.9 -99.99 -9.99
2020/02/16 17:36 EST    1.48   1.51    4  134    6  40.6  39.4 1019.4 -9.9 -9.999 -99.9 -99.99 -9.99
2020/02/16 17:42 EST    1.40 -99.99 -999 -999 -999 -99.9 -99.9 -999.9 -9.9 -9.999 -99.9 -99.99 -9.99